﻿<?xml version="1.0" encoding="utf-8"?><gpx creator="Garmin Desktop App" version="1.1" xsi:schemaLocation="http://www.topografix.com/GPX/1/1 http://www.topografix.com/GPX/1/1/gpx.xsd http://www.garmin.com/xmlschemas/WaypointExtension/v1 http://www8.garmin.com/xmlschemas/WaypointExtensionv1.xsd http://www.garmin.com/xmlschemas/TrackPointExtension/v1 http://www.garmin.com/xmlschemas/TrackPointExtensionv1.xsd http://www.garmin.com/xmlschemas/GpxExtensions/v3 http://www8.garmin.com/xmlschemas/GpxExtensionsv3.xsd http://www.garmin.com/xmlschemas/ActivityExtension/v1 http://www8.garmin.com/xmlschemas/ActivityExtensionv1.xsd http://www.garmin.com/xmlschemas/AdventuresExtensions/v1 http://www8.garmin.com/xmlschemas/AdventuresExtensionv1.xsd http://www.garmin.com/xmlschemas/PressureExtension/v1 http://www.garmin.com/xmlschemas/PressureExtensionv1.xsd http://www.garmin.com/xmlschemas/TripExtensions/v1 http://www.garmin.com/xmlschemas/TripExtensionsv1.xsd http://www.garmin.com/xmlschemas/TripMetaDataExtensions/v1 http://www.garmin.com/xmlschemas/TripMetaDataExtensionsv1.xsd http://www.garmin.com/xmlschemas/ViaPointTransportationModeExtensions/v1 http://www.garmin.com/xmlschemas/ViaPointTransportationModeExtensionsv1.xsd http://www.garmin.com/xmlschemas/CreationTimeExtension/v1 http://www.garmin.com/xmlschemas/CreationTimeExtensionsv1.xsd http://www.garmin.com/xmlschemas/AccelerationExtension/v1 http://www.garmin.com/xmlschemas/AccelerationExtensionv1.xsd http://www.garmin.com/xmlschemas/PowerExtension/v1 http://www.garmin.com/xmlschemas/PowerExtensionv1.xsd http://www.garmin.com/xmlschemas/VideoExtension/v1 http://www.garmin.com/xmlschemas/VideoExtensionv1.xsd" xmlns="http://www.topografix.com/GPX/1/1" xmlns:xsi="http://www.w3.org/2001/XMLSchema-instance" xmlns:wptx1="http://www.garmin.com/xmlschemas/WaypointExtension/v1" xmlns:gpxtrx="http://www.garmin.com/xmlschemas/GpxExtensions/v3" xmlns:gpxtpx="http://www.garmin.com/xmlschemas/TrackPointExtension/v1" xmlns:gpxx="http://www.garmin.com/xmlschemas/GpxExtensions/v3" xmlns:trp="http://www.garmin.com/xmlschemas/TripExtensions/v1" xmlns:adv="http://www.garmin.com/xmlschemas/AdventuresExtensions/v1" xmlns:prs="http://www.garmin.com/xmlschemas/PressureExtension/v1" xmlns:tmd="http://www.garmin.com/xmlschemas/TripMetaDataExtensions/v1" xmlns:vptm="http://www.garmin.com/xmlschemas/ViaPointTransportationModeExtensions/v1" xmlns:ctx="http://www.garmin.com/xmlschemas/CreationTimeExtension/v1" xmlns:gpxacc="http://www.garmin.com/xmlschemas/AccelerationExtension/v1" xmlns:gpxpx="http://www.garmin.com/xmlschemas/PowerExtension/v1" xmlns:vidx1="http://www.garmin.com/xmlschemas/VideoExtension/v1">

  <metadata>
    <link href="http://www.garmin.com">
      <text>Garmin International</text>
    </link>
    <time>2021-01-08T14:01:12Z</time>
    <bounds maxlat="45.950760617852211" maxlon="9.442232614383102" minlat="45.941525604575872" minlon="9.413718804717064" />
  </metadata>

  <trk>
    <name>rif-pialeral2020</name>
    <extensions>
      <gpxx:TrackExtension>
        <gpxx:DisplayColor>Yellow</gpxx:DisplayColor>
      </gpxx:TrackExtension>
    </extensions>
    <trkseg>
      <trkpt lat="45.950760617852211" lon="9.442153656855226">
        <ele>658.63999999999999</ele>
        <time>2012-11-25T08:25:12Z</time>
      </trkpt>
      <trkpt lat="45.950756845995784" lon="9.442153153941035">
        <ele>657.20000000000005</ele>
        <time>2012-11-25T08:25:14Z</time>
      </trkpt>
      <trkpt lat="45.950553836300969" lon="9.442224651575089">
        <ele>659.60000000000002</ele>
        <time>2012-11-25T08:25:34Z</time>
      </trkpt>
      <trkpt lat="45.950459958985448" lon="9.442232614383102">
        <ele>661.03999999999996</ele>
        <time>2012-11-25T08:25:47Z</time>
      </trkpt>
      <trkpt lat="45.950353424996138" lon="9.442032873630524">
        <ele>663.45000000000005</ele>
        <time>2012-11-25T08:26:02Z</time>
      </trkpt>
      <trkpt lat="45.950301541015506" lon="9.44200286641717">
        <ele>665.37</ele>
        <time>2012-11-25T08:26:09Z</time>
      </trkpt>
      <trkpt lat="45.950254434719682" lon="9.441997585818172">
        <ele>665.85000000000002</ele>
        <time>2012-11-25T08:26:15Z</time>
      </trkpt>
      <trkpt lat="45.950147313997149" lon="9.441874623298645">
        <ele>667.76999999999998</ele>
        <time>2012-11-25T08:26:29Z</time>
      </trkpt>
      <trkpt lat="45.950113786384463" lon="9.441746128723025">
        <ele>669.70000000000005</ele>
        <time>2012-11-25T08:26:45Z</time>
      </trkpt>
      <trkpt lat="45.950131556019187" lon="9.441663566976786">
        <ele>671.62</ele>
        <time>2012-11-25T08:27:00Z</time>
      </trkpt>
      <trkpt lat="45.950124682858586" lon="9.441602798178792">
        <ele>672.58000000000004</ele>
        <time>2012-11-25T08:27:13Z</time>
      </trkpt>
      <trkpt lat="45.950124682858586" lon="9.441608497872949">
        <ele>672.58000000000004</ele>
        <time>2012-11-25T08:27:14Z</time>
      </trkpt>
      <trkpt lat="45.950131556019187" lon="9.441520404070616">
        <ele>674.5</ele>
        <time>2012-11-25T08:27:29Z</time>
      </trkpt>
      <trkpt lat="45.950092328712344" lon="9.441463993862271">
        <ele>676.41999999999996</ele>
        <time>2012-11-25T08:27:40Z</time>
      </trkpt>
      <trkpt lat="45.950079755857587" lon="9.44145267829299">
        <ele>677.38999999999999</ele>
        <time>2012-11-25T08:27:55Z</time>
      </trkpt>
      <trkpt lat="45.950069697573781" lon="9.441382773220539">
        <ele>677.87</ele>
        <time>2012-11-25T08:28:10Z</time>
      </trkpt>
      <trkpt lat="45.950050251558423" lon="9.441305408254266">
        <ele>679.30999999999995</ele>
        <time>2012-11-25T08:28:23Z</time>
      </trkpt>
      <trkpt lat="45.950030470266938" lon="9.441239694133401">
        <ele>680.26999999999998</ele>
        <time>2012-11-25T08:28:37Z</time>
      </trkpt>
      <trkpt lat="45.950054191052914" lon="9.441175488755107">
        <ele>682.19000000000005</ele>
        <time>2012-11-25T08:28:49Z</time>
      </trkpt>
      <trkpt lat="45.950034745037556" lon="9.440994523465633">
        <ele>684.60000000000002</ele>
        <time>2012-11-25T08:29:03Z</time>
      </trkpt>
      <trkpt lat="45.950024100020528" lon="9.440918751060963">
        <ele>687</ele>
        <time>2012-11-25T08:29:17Z</time>
      </trkpt>
      <trkpt lat="45.950025608763099" lon="9.440845996141434">
        <ele>688.44000000000005</ele>
        <time>2012-11-25T08:29:28Z</time>
      </trkpt>
      <trkpt lat="45.950019657611847" lon="9.440684141591191">
        <ele>691.33000000000004</ele>
        <time>2012-11-25T08:29:47Z</time>
      </trkpt>
      <trkpt lat="45.950025441125035" lon="9.440591521561146">
        <ele>693.25</ele>
        <time>2012-11-25T08:30:02Z</time>
      </trkpt>
      <trkpt lat="45.949987219646573" lon="9.44048909470439">
        <ele>695.16999999999996</ele>
        <time>2012-11-25T08:30:15Z</time>
      </trkpt>
      <trkpt lat="45.949958553537726" lon="9.440408460795879">
        <ele>696.61000000000001</ele>
        <time>2012-11-25T08:30:29Z</time>
      </trkpt>
      <trkpt lat="45.949961571022868" lon="9.440399995073676">
        <ele>697.57000000000005</ele>
        <time>2012-11-25T08:30:46Z</time>
      </trkpt>
      <trkpt lat="45.949964001774788" lon="9.440402425825596">
        <ele>697.57000000000005</ele>
        <time>2012-11-25T08:30:57Z</time>
      </trkpt>
      <trkpt lat="45.94993818551302" lon="9.440300418063998">
        <ele>700.46000000000004</ele>
        <time>2012-11-25T08:31:12Z</time>
      </trkpt>
      <trkpt lat="45.949877165257931" lon="9.440134791657329">
        <ele>701.89999999999998</ele>
        <time>2012-11-25T08:31:26Z</time>
      </trkpt>
      <trkpt lat="45.949817150831223" lon="9.440054157748818">
        <ele>703.34000000000003</ele>
        <time>2012-11-25T08:31:39Z</time>
      </trkpt>
      <trkpt lat="45.949770379811525" lon="9.439985426142812">
        <ele>704.77999999999997</ele>
        <time>2012-11-25T08:31:51Z</time>
      </trkpt>
      <trkpt lat="45.949754873290658" lon="9.439922226592898">
        <ele>707.19000000000005</ele>
        <time>2012-11-25T08:32:05Z</time>
      </trkpt>
      <trkpt lat="45.949791418388486" lon="9.43978937342763">
        <ele>710.07000000000005</ele>
        <time>2012-11-25T08:32:18Z</time>
      </trkpt>
      <trkpt lat="45.949767362326384" lon="9.439690299332142">
        <ele>712.47000000000003</ele>
        <time>2012-11-25T08:32:28Z</time>
      </trkpt>
      <trkpt lat="45.949740707874298" lon="9.439550908282399">
        <ele>713.91999999999996</ele>
        <time>2012-11-25T08:32:40Z</time>
      </trkpt>
      <trkpt lat="45.949733750894666" lon="9.439542191103101">
        <ele>713.91999999999996</ele>
        <time>2012-11-25T08:32:42Z</time>
      </trkpt>
      <trkpt lat="45.949637275189161" lon="9.439514111727476">
        <ele>715.36000000000001</ele>
        <time>2012-11-25T08:32:56Z</time>
      </trkpt>
      <trkpt lat="45.949619254097342" lon="9.439528780058026">
        <ele>714.88</ele>
        <time>2012-11-25T08:32:59Z</time>
      </trkpt>
      <trkpt lat="45.949492435902357" lon="9.43967261351645">
        <ele>711.99000000000001</ele>
        <time>2012-11-25T08:33:12Z</time>
      </trkpt>
      <trkpt lat="45.949381543323398" lon="9.439743021503091">
        <ele>710.54999999999995</ele>
        <time>2012-11-25T08:33:25Z</time>
      </trkpt>
      <trkpt lat="45.949252210557461" lon="9.439805969595909">
        <ele>710.54999999999995</ele>
        <time>2012-11-25T08:33:39Z</time>
      </trkpt>
      <trkpt lat="45.949132516980171" lon="9.439871348440647">
        <ele>711.99000000000001</ele>
        <time>2012-11-25T08:33:52Z</time>
      </trkpt>
      <trkpt lat="45.949123296886683" lon="9.439874617382884">
        <ele>711.50999999999999</ele>
        <time>2012-11-25T08:33:53Z</time>
      </trkpt>
      <trkpt lat="45.949022797867656" lon="9.439967321231961">
        <ele>711.99000000000001</ele>
        <time>2012-11-25T08:34:07Z</time>
      </trkpt>
      <trkpt lat="45.948896231129766" lon="9.440114675089717">
        <ele>710.54999999999995</ele>
        <time>2012-11-25T08:34:23Z</time>
      </trkpt>
      <trkpt lat="45.948840072378516" lon="9.440221628174186">
        <ele>710.07000000000005</ele>
        <time>2012-11-25T08:34:42Z</time>
      </trkpt>
      <trkpt lat="45.948774861171842" lon="9.440194554626942">
        <ele>710.54999999999995</ele>
        <time>2012-11-25T08:34:55Z</time>
      </trkpt>
      <trkpt lat="45.948772178962827" lon="9.440093049779534">
        <ele>711.99000000000001</ele>
        <time>2012-11-25T08:35:09Z</time>
      </trkpt>
      <trkpt lat="45.948796067386866" lon="9.439995735883713">
        <ele>713.44000000000005</ele>
        <time>2012-11-25T08:35:21Z</time>
      </trkpt>
      <trkpt lat="45.948805706575513" lon="9.439865900203586">
        <ele>715.84000000000003</ele>
        <time>2012-11-25T08:35:36Z</time>
      </trkpt>
      <trkpt lat="45.94878600910306" lon="9.439756097272039">
        <ele>717.27999999999997</ele>
        <time>2012-11-25T08:35:49Z</time>
      </trkpt>
      <trkpt lat="45.948751894757152" lon="9.43961201235652">
        <ele>719.67999999999995</ele>
        <time>2012-11-25T08:36:05Z</time>
      </trkpt>
      <trkpt lat="45.948746614158154" lon="9.4395284447819">
        <ele>721.13</ele>
        <time>2012-11-25T08:36:17Z</time>
      </trkpt>
      <trkpt lat="45.948743680492043" lon="9.439429035410285">
        <ele>723.04999999999995</ele>
        <time>2012-11-25T08:36:33Z</time>
      </trkpt>
      <trkpt lat="45.948738567531109" lon="9.439285285770893">
        <ele>725.45000000000005</ele>
        <time>2012-11-25T08:36:50Z</time>
      </trkpt>
      <trkpt lat="45.948768826201558" lon="9.439103817567229">
        <ele>727.37</ele>
        <time>2012-11-25T08:37:07Z</time>
      </trkpt>
      <trkpt lat="45.948791289702058" lon="9.438965683802962">
        <ele>728.82000000000005</ele>
        <time>2012-11-25T08:37:20Z</time>
      </trkpt>
      <trkpt lat="45.948848621919751" lon="9.438869124278426">
        <ele>730.74000000000001</ele>
        <time>2012-11-25T08:37:34Z</time>
      </trkpt>
      <trkpt lat="45.948890531435609" lon="9.438801817595959">
        <ele>731.70000000000005</ele>
        <time>2012-11-25T08:37:45Z</time>
      </trkpt>
      <trkpt lat="45.948934452608228" lon="9.438820341601968">
        <ele>732.65999999999997</ele>
        <time>2012-11-25T08:38:00Z</time>
      </trkpt>
      <trkpt lat="45.948952557519078" lon="9.438844313845038">
        <ele>732.65999999999997</ele>
        <time>2012-11-25T08:38:09Z</time>
      </trkpt>
      <trkpt lat="45.949010644108057" lon="9.43877792917192">
        <ele>735.07000000000005</ele>
        <time>2012-11-25T08:38:21Z</time>
      </trkpt>
      <trkpt lat="45.948948869481683" lon="9.438704252243042">
        <ele>737.47000000000003</ele>
        <time>2012-11-25T08:38:33Z</time>
      </trkpt>
      <trkpt lat="45.948896063491702" lon="9.438615655526519">
        <ele>739.38999999999999</ele>
        <time>2012-11-25T08:38:45Z</time>
      </trkpt>
      <trkpt lat="45.948846274986863" lon="9.438502918928862">
        <ele>741.78999999999996</ele>
        <time>2012-11-25T08:38:58Z</time>
      </trkpt>
      <trkpt lat="45.948790367692709" lon="9.438401749357581">
        <ele>743.72000000000003</ele>
        <time>2012-11-25T08:39:13Z</time>
      </trkpt>
      <trkpt lat="45.948708979412913" lon="9.438300160691142">
        <ele>744.67999999999995</ele>
        <time>2012-11-25T08:39:27Z</time>
      </trkpt>
      <trkpt lat="45.948634883388877" lon="9.438196392729878">
        <ele>746.12</ele>
        <time>2012-11-25T08:39:42Z</time>
      </trkpt>
      <trkpt lat="45.948571851477027" lon="9.438108131289482">
        <ele>748.51999999999998</ele>
        <time>2012-11-25T08:39:56Z</time>
      </trkpt>
      <trkpt lat="45.948467664420605" lon="9.438064126297832">
        <ele>750.45000000000005</ele>
        <time>2012-11-25T08:40:12Z</time>
      </trkpt>
      <trkpt lat="45.948370266705751" lon="9.438006458804011">
        <ele>751.40999999999997</ele>
        <time>2012-11-25T08:40:23Z</time>
      </trkpt>
      <trkpt lat="45.948314191773534" lon="9.437974691390991">
        <ele>752.85000000000002</ele>
        <time>2012-11-25T08:40:33Z</time>
      </trkpt>
      <trkpt lat="45.948228696361184" lon="9.437974188476801">
        <ele>753.33000000000004</ele>
        <time>2012-11-25T08:40:48Z</time>
      </trkpt>
      <trkpt lat="45.948171950876713" lon="9.437992377206683">
        <ele>754.76999999999998</ele>
        <time>2012-11-25T08:41:01Z</time>
      </trkpt>
      <trkpt lat="45.94806089065969" lon="9.438019786030054">
        <ele>756.21000000000004</ele>
        <time>2012-11-25T08:41:15Z</time>
      </trkpt>
      <trkpt lat="45.947972629219294" lon="9.43802054040134">
        <ele>757.17999999999995</ele>
        <time>2012-11-25T08:41:28Z</time>
      </trkpt>
      <trkpt lat="45.947855534031987" lon="9.438052223995328">
        <ele>758.62</ele>
        <time>2012-11-25T08:41:44Z</time>
      </trkpt>
      <trkpt lat="45.947740450501442" lon="9.437973098829389">
        <ele>759.58000000000004</ele>
        <time>2012-11-25T08:42:00Z</time>
      </trkpt>
      <trkpt lat="45.947634000331163" lon="9.437877042219043">
        <ele>759.58000000000004</ele>
        <time>2012-11-25T08:42:13Z</time>
      </trkpt>
      <trkpt lat="45.947545655071735" lon="9.437821889296174">
        <ele>760.53999999999996</ele>
        <time>2012-11-25T08:42:26Z</time>
      </trkpt>
      <trkpt lat="45.947439121082425" lon="9.437780315056443">
        <ele>760.53999999999996</ele>
        <time>2012-11-25T08:42:41Z</time>
      </trkpt>
      <trkpt lat="45.947344405576587" lon="9.437859272584319">
        <ele>761.98000000000002</ele>
        <time>2012-11-25T08:42:57Z</time>
      </trkpt>
      <trkpt lat="45.947279864922166" lon="9.437991371378303">
        <ele>763.41999999999996</ele>
        <time>2012-11-25T08:43:15Z</time>
      </trkpt>
      <trkpt lat="45.947243487462401" lon="9.438107963651419">
        <ele>764.87</ele>
        <time>2012-11-25T08:43:28Z</time>
      </trkpt>
      <trkpt lat="45.947193950414658" lon="9.438241822645068">
        <ele>766.30999999999995</ele>
        <time>2012-11-25T08:43:42Z</time>
      </trkpt>
      <trkpt lat="45.947110718116164" lon="9.438388422131538">
        <ele>768.71000000000004</ele>
        <time>2012-11-25T08:44:01Z</time>
      </trkpt>
      <trkpt lat="45.947044501081109" lon="9.438494369387627">
        <ele>770.63</ele>
        <time>2012-11-25T08:44:17Z</time>
      </trkpt>
      <trkpt lat="45.946989767253399" lon="9.438638454303145">
        <ele>773.03999999999996</ele>
        <time>2012-11-25T08:44:34Z</time>
      </trkpt>
      <trkpt lat="45.946920868009329" lon="9.438720345497131">
        <ele>774.48000000000002</ele>
        <time>2012-11-25T08:44:49Z</time>
      </trkpt>
      <trkpt lat="45.946810394525528" lon="9.438679860904813">
        <ele>776.88</ele>
        <time>2012-11-25T08:45:04Z</time>
      </trkpt>
      <trkpt lat="45.946720624342561" lon="9.438663432374597">
        <ele>778.80999999999995</ele>
        <time>2012-11-25T08:45:20Z</time>
      </trkpt>
      <trkpt lat="45.946664214134216" lon="9.438725626096129">
        <ele>781.21000000000004</ele>
        <time>2012-11-25T08:45:35Z</time>
      </trkpt>
      <trkpt lat="45.946628423407674" lon="9.438822185620666">
        <ele>782.64999999999998</ele>
        <time>2012-11-25T08:45:48Z</time>
      </trkpt>
      <trkpt lat="45.946573857218027" lon="9.43895093165338">
        <ele>785.04999999999995</ele>
        <time>2012-11-25T08:46:03Z</time>
      </trkpt>
      <trkpt lat="45.94653932377696" lon="9.439066099002957">
        <ele>786.01999999999998</ele>
        <time>2012-11-25T08:46:17Z</time>
      </trkpt>
      <trkpt lat="45.946519374847412" lon="9.43919668905437">
        <ele>787.94000000000005</ele>
        <time>2012-11-25T08:46:31Z</time>
      </trkpt>
      <trkpt lat="45.946510406211019" lon="9.439334571361542">
        <ele>789.86000000000001</ele>
        <time>2012-11-25T08:46:45Z</time>
      </trkpt>
      <trkpt lat="45.946441255509853" lon="9.439439931884408">
        <ele>791.77999999999997</ele>
        <time>2012-11-25T08:47:01Z</time>
      </trkpt>
      <trkpt lat="45.946357185021043" lon="9.439501622691751">
        <ele>793.71000000000004</ele>
        <time>2012-11-25T08:47:16Z</time>
      </trkpt>
      <trkpt lat="45.946261798962951" lon="9.439597092568874">
        <ele>796.11000000000001</ele>
        <time>2012-11-25T08:47:33Z</time>
      </trkpt>
      <trkpt lat="45.946176052093506" lon="9.439691891893745">
        <ele>798.02999999999997</ele>
        <time>2012-11-25T08:47:50Z</time>
      </trkpt>
      <trkpt lat="45.946073373779655" lon="9.439755342900753">
        <ele>800.44000000000005</ele>
        <time>2012-11-25T08:48:06Z</time>
      </trkpt>
      <trkpt lat="45.94599106349051" lon="9.439826756715775">
        <ele>802.36000000000001</ele>
        <time>2012-11-25T08:48:22Z</time>
      </trkpt>
      <trkpt lat="45.945887295529246" lon="9.43989641033113">
        <ele>804.27999999999997</ele>
        <time>2012-11-25T08:48:37Z</time>
      </trkpt>
      <trkpt lat="45.945784030482173" lon="9.439959190785885">
        <ele>805.24000000000001</ele>
        <time>2012-11-25T08:48:51Z</time>
      </trkpt>
      <trkpt lat="45.945699959993362" lon="9.440016355365515">
        <ele>806.67999999999995</ele>
        <time>2012-11-25T08:49:05Z</time>
      </trkpt>
      <trkpt lat="45.945690656080842" lon="9.440018618479371">
        <ele>806.67999999999995</ele>
        <time>2012-11-25T08:49:07Z</time>
      </trkpt>
      <trkpt lat="45.945709850639105" lon="9.439991964027286">
        <ele>805.24000000000001</ele>
        <time>2012-11-25T08:49:17Z</time>
      </trkpt>
      <trkpt lat="45.945660145953298" lon="9.439985761418939">
        <ele>805.72000000000003</ele>
        <time>2012-11-25T08:49:46Z</time>
      </trkpt>
      <trkpt lat="45.945670790970325" lon="9.439979223534465">
        <ele>807.63999999999999</ele>
        <time>2012-11-25T08:49:57Z</time>
      </trkpt>
      <trkpt lat="45.945644471794367" lon="9.439979391172528">
        <ele>806.20000000000005</ele>
        <time>2012-11-25T08:50:08Z</time>
      </trkpt>
      <trkpt lat="45.945633910596371" lon="9.439945025369525">
        <ele>806.67999999999995</ele>
        <time>2012-11-25T08:50:11Z</time>
      </trkpt>
      <trkpt lat="45.945498291403055" lon="9.43983874283731">
        <ele>809.57000000000005</ele>
        <time>2012-11-25T08:50:27Z</time>
      </trkpt>
      <trkpt lat="45.945476414635777" lon="9.439796665683389">
        <ele>810.04999999999995</ele>
        <time>2012-11-25T08:50:45Z</time>
      </trkpt>
      <trkpt lat="45.945452442392707" lon="9.439779650419951">
        <ele>810.52999999999997</ele>
        <time>2012-11-25T08:50:48Z</time>
      </trkpt>
      <trkpt lat="45.945441043004394" lon="9.439769256860018">
        <ele>811.00999999999999</ele>
        <time>2012-11-25T08:50:50Z</time>
      </trkpt>
      <trkpt lat="45.945386392995715" lon="9.43969608284533">
        <ele>812.92999999999995</ele>
        <time>2012-11-25T08:50:58Z</time>
      </trkpt>
      <trkpt lat="45.945291174575686" lon="9.439596254378557">
        <ele>815.34000000000003</ele>
        <time>2012-11-25T08:51:12Z</time>
      </trkpt>
      <trkpt lat="45.945176426321268" lon="9.439658029004931">
        <ele>816.77999999999997</ele>
        <time>2012-11-25T08:51:28Z</time>
      </trkpt>
      <trkpt lat="45.945137869566679" lon="9.439708068966866">
        <ele>819.65999999999997</ele>
        <time>2012-11-25T08:51:35Z</time>
      </trkpt>
      <trkpt lat="45.945041310042143" lon="9.439764646813273">
        <ele>822.54999999999995</ele>
        <time>2012-11-25T08:51:49Z</time>
      </trkpt>
      <trkpt lat="45.944954724982381" lon="9.439773028716445">
        <ele>825.42999999999995</ele>
        <time>2012-11-25T08:52:03Z</time>
      </trkpt>
      <trkpt lat="45.944865876808763" lon="9.439764395356178">
        <ele>828.30999999999995</ele>
        <time>2012-11-25T08:52:16Z</time>
      </trkpt>
      <trkpt lat="45.944769652560353" lon="9.439744111150503">
        <ele>831.67999999999995</ele>
        <time>2012-11-25T08:52:29Z</time>
      </trkpt>
      <trkpt lat="45.944680217653513" lon="9.439654843881726">
        <ele>833.60000000000002</ele>
        <time>2012-11-25T08:52:42Z</time>
      </trkpt>
      <trkpt lat="45.944647863507271" lon="9.439610168337822">
        <ele>834.55999999999995</ele>
        <time>2012-11-25T08:52:48Z</time>
      </trkpt>
      <trkpt lat="45.944632440805435" lon="9.43959591910243">
        <ele>835.51999999999998</ele>
        <time>2012-11-25T08:52:51Z</time>
      </trkpt>
      <trkpt lat="45.944573767483234" lon="9.439513776451349">
        <ele>837.92999999999995</ele>
        <time>2012-11-25T08:53:04Z</time>
      </trkpt>
      <trkpt lat="45.944543089717627" lon="9.439463736489415">
        <ele>839.37</ele>
        <time>2012-11-25T08:53:17Z</time>
      </trkpt>
      <trkpt lat="45.944560021162033" lon="9.439431298524141">
        <ele>839.85000000000002</ele>
        <time>2012-11-25T08:53:33Z</time>
      </trkpt>
      <trkpt lat="45.944593967869878" lon="9.439363069832325">
        <ele>840.33000000000004</ele>
        <time>2012-11-25T08:53:49Z</time>
      </trkpt>
      <trkpt lat="45.944602098315954" lon="9.43934278562665">
        <ele>840.80999999999995</ele>
        <time>2012-11-25T08:53:51Z</time>
      </trkpt>
      <trkpt lat="45.944553064182401" lon="9.439255027100444">
        <ele>842.25</ele>
        <time>2012-11-25T08:54:01Z</time>
      </trkpt>
      <trkpt lat="45.944488774985075" lon="9.439302552491427">
        <ele>843.21000000000004</ele>
        <time>2012-11-25T08:54:09Z</time>
      </trkpt>
      <trkpt lat="45.944406632333994" lon="9.439332978799939">
        <ele>843.69000000000005</ele>
        <time>2012-11-25T08:54:19Z</time>
      </trkpt>
      <trkpt lat="45.944435885176063" lon="9.439205657690764">
        <ele>845.62</ele>
        <time>2012-11-25T08:54:33Z</time>
      </trkpt>
      <trkpt lat="45.94450905919075" lon="9.439074564725161">
        <ele>848.01999999999998</ele>
        <time>2012-11-25T08:54:48Z</time>
      </trkpt>
      <trkpt lat="45.944554908201098" lon="9.43897875957191">
        <ele>850.89999999999998</ele>
        <time>2012-11-25T08:55:01Z</time>
      </trkpt>
      <trkpt lat="45.944575276225805" lon="9.438880356028676">
        <ele>852.83000000000004</ele>
        <time>2012-11-25T08:55:14Z</time>
      </trkpt>
      <trkpt lat="45.94462875276804" lon="9.43878086283803">
        <ele>855.71000000000004</ele>
        <time>2012-11-25T08:55:28Z</time>
      </trkpt>
      <trkpt lat="45.944575276225805" lon="9.438684638589621">
        <ele>858.59000000000003</ele>
        <time>2012-11-25T08:55:44Z</time>
      </trkpt>
      <trkpt lat="45.944601595401764" lon="9.438599729910493">
        <ele>860.51999999999998</ele>
        <time>2012-11-25T08:55:58Z</time>
      </trkpt>
      <trkpt lat="45.944685833528638" lon="9.438592437654734">
        <ele>863.39999999999998</ele>
        <time>2012-11-25T08:56:13Z</time>
      </trkpt>
      <trkpt lat="45.94468742609024" lon="9.438547510653734">
        <ele>864.84000000000003</ele>
        <time>2012-11-25T08:56:26Z</time>
      </trkpt>
      <trkpt lat="45.944719947874546" lon="9.438493363559246">
        <ele>867.25</ele>
        <time>2012-11-25T08:56:37Z</time>
      </trkpt>
      <trkpt lat="45.944798905402422" lon="9.438421279191971">
        <ele>869.64999999999998</ele>
        <time>2012-11-25T08:56:52Z</time>
      </trkpt>
      <trkpt lat="45.94485598616302" lon="9.438348608091474">
        <ele>872.52999999999997</ele>
        <time>2012-11-25T08:57:07Z</time>
      </trkpt>
      <trkpt lat="45.944886831566691" lon="9.438237464055419">
        <ele>874.94000000000005</ele>
        <time>2012-11-25T08:57:21Z</time>
      </trkpt>
      <trkpt lat="45.944908708333969" lon="9.438140820711851">
        <ele>877.34000000000003</ele>
        <time>2012-11-25T08:57:35Z</time>
      </trkpt>
      <trkpt lat="45.944931842386723" lon="9.438021965324879">
        <ele>880.22000000000003</ele>
        <time>2012-11-25T08:57:52Z</time>
      </trkpt>
      <trkpt lat="45.944963190704584" lon="9.437871007248759">
        <ele>882.14999999999998</ele>
        <time>2012-11-25T08:58:07Z</time>
      </trkpt>
      <trkpt lat="45.944954389706254" lon="9.437754163518548">
        <ele>882.63</ele>
        <time>2012-11-25T08:58:20Z</time>
      </trkpt>
      <trkpt lat="45.944923963397741" lon="9.437615694478154">
        <ele>885.02999999999997</ele>
        <time>2012-11-25T08:58:38Z</time>
      </trkpt>
      <trkpt lat="45.944936452433467" lon="9.437511507421732">
        <ele>887.42999999999995</ele>
        <time>2012-11-25T08:58:53Z</time>
      </trkpt>
      <trkpt lat="45.944895967841148" lon="9.43736432120204">
        <ele>889.36000000000001</ele>
        <time>2012-11-25T08:59:10Z</time>
      </trkpt>
      <trkpt lat="45.944849699735641" lon="9.437324339523912">
        <ele>890.79999999999995</ele>
        <time>2012-11-25T08:59:23Z</time>
      </trkpt>
      <trkpt lat="45.944828158244491" lon="9.437342528253794">
        <ele>891.27999999999997</ele>
        <time>2012-11-25T08:59:36Z</time>
      </trkpt>
      <trkpt lat="45.944821871817112" lon="9.437236413359642">
        <ele>891.75999999999999</ele>
        <time>2012-11-25T08:59:50Z</time>
      </trkpt>
      <trkpt lat="45.944740232080221" lon="9.437182266265154">
        <ele>894.15999999999997</ele>
        <time>2012-11-25T09:00:03Z</time>
      </trkpt>
      <trkpt lat="45.944695472717285" lon="9.437078749760985">
        <ele>895.61000000000001</ele>
        <time>2012-11-25T09:00:16Z</time>
      </trkpt>
      <trkpt lat="45.944702764973044" lon="9.436946986243129">
        <ele>898.00999999999999</ele>
        <time>2012-11-25T09:00:31Z</time>
      </trkpt>
      <trkpt lat="45.944699747487903" lon="9.436843385919929">
        <ele>899.92999999999995</ele>
        <time>2012-11-25T09:00:45Z</time>
      </trkpt>
      <trkpt lat="45.944666974246502" lon="9.436735091730952">
        <ele>902.33000000000004</ele>
        <time>2012-11-25T09:01:01Z</time>
      </trkpt>
      <trkpt lat="45.944684324786067" lon="9.436586229130626">
        <ele>903.77999999999997</ele>
        <time>2012-11-25T09:01:15Z</time>
      </trkpt>
      <trkpt lat="45.944701926782727" lon="9.436427559703589">
        <ele>905.22000000000003</ele>
        <time>2012-11-25T09:01:30Z</time>
      </trkpt>
      <trkpt lat="45.944745261222124" lon="9.436321528628469">
        <ele>907.62</ele>
        <time>2012-11-25T09:01:45Z</time>
      </trkpt>
      <trkpt lat="45.94479781575501" lon="9.436206109821796">
        <ele>907.13999999999999</ele>
        <time>2012-11-25T09:01:57Z</time>
      </trkpt>
      <trkpt lat="45.94481642358005" lon="9.436134696006775">
        <ele>910.99000000000001</ele>
        <time>2012-11-25T09:02:07Z</time>
      </trkpt>
      <trkpt lat="45.944821620360017" lon="9.436134360730648">
        <ele>910.50999999999999</ele>
        <time>2012-11-25T09:02:08Z</time>
      </trkpt>
      <trkpt lat="45.944876438006759" lon="9.43602304905653">
        <ele>912.90999999999997</ele>
        <time>2012-11-25T09:02:24Z</time>
      </trkpt>
      <trkpt lat="45.944938631728292" lon="9.435947276651859">
        <ele>913.87</ele>
        <time>2012-11-25T09:02:42Z</time>
      </trkpt>
      <trkpt lat="45.945049105212092" lon="9.435826996341348">
        <ele>916.26999999999998</ele>
        <time>2012-11-25T09:03:00Z</time>
      </trkpt>
      <trkpt lat="45.945116328075528" lon="9.435751894488931">
        <ele>916.75</ele>
        <time>2012-11-25T09:03:13Z</time>
      </trkpt>
      <trkpt lat="45.945194028317928" lon="9.435677127912641">
        <ele>918.20000000000005</ele>
        <time>2012-11-25T09:03:26Z</time>
      </trkpt>
      <trkpt lat="45.945219425484538" lon="9.435639157891274">
        <ele>918.67999999999995</ele>
        <time>2012-11-25T09:03:34Z</time>
      </trkpt>
      <trkpt lat="45.945263095200062" lon="9.435562212020159">
        <ele>920.60000000000002</ele>
        <time>2012-11-25T09:03:47Z</time>
      </trkpt>
      <trkpt lat="45.945311207324266" lon="9.4355134293437">
        <ele>922.03999999999996</ele>
        <time>2012-11-25T09:03:57Z</time>
      </trkpt>
      <trkpt lat="45.945385219529271" lon="9.435457354411483">
        <ele>924.45000000000005</ele>
        <time>2012-11-25T09:04:11Z</time>
      </trkpt>
      <trkpt lat="45.945447329431772" lon="9.435407817363739">
        <ele>926.37</ele>
        <time>2012-11-25T09:04:25Z</time>
      </trkpt>
      <trkpt lat="45.945473564788699" lon="9.435367751866579">
        <ele>928.28999999999996</ele>
        <time>2012-11-25T09:04:38Z</time>
      </trkpt>
      <trkpt lat="45.945523772388697" lon="9.43528669886291">
        <ele>930.21000000000004</ele>
        <time>2012-11-25T09:04:53Z</time>
      </trkpt>
      <trkpt lat="45.945522179827094" lon="9.435179745778441">
        <ele>932.13999999999999</ele>
        <time>2012-11-25T09:05:07Z</time>
      </trkpt>
      <trkpt lat="45.945515306666493" lon="9.435089556500316">
        <ele>933.58000000000004</ele>
        <time>2012-11-25T09:05:18Z</time>
      </trkpt>
      <trkpt lat="45.945507427677512" lon="9.435058543458581">
        <ele>934.53999999999996</ele>
        <time>2012-11-25T09:05:27Z</time>
      </trkpt>
      <trkpt lat="45.945474235340953" lon="9.434955194592476">
        <ele>936.46000000000004</ele>
        <time>2012-11-25T09:05:41Z</time>
      </trkpt>
      <trkpt lat="45.945484964177012" lon="9.434845307841897">
        <ele>938.86000000000001</ele>
        <time>2012-11-25T09:05:52Z</time>
      </trkpt>
      <trkpt lat="45.94551513902843" lon="9.434722848236561">
        <ele>940.30999999999995</ele>
        <time>2012-11-25T09:06:04Z</time>
      </trkpt>
      <trkpt lat="45.945517318323255" lon="9.434631150215864">
        <ele>941.26999999999998</ele>
        <time>2012-11-25T09:06:13Z</time>
      </trkpt>
      <trkpt lat="45.945504661649466" lon="9.43452000617981">
        <ele>944.14999999999998</ele>
        <time>2012-11-25T09:06:27Z</time>
      </trkpt>
      <trkpt lat="45.945508517324924" lon="9.434456638991833">
        <ele>945.59000000000003</ele>
        <time>2012-11-25T09:06:39Z</time>
      </trkpt>
      <trkpt lat="45.945492759346962" lon="9.43446971476078">
        <ele>947.51999999999998</ele>
        <time>2012-11-25T09:06:54Z</time>
      </trkpt>
      <trkpt lat="45.945437019690871" lon="9.434488071128726">
        <ele>949.44000000000005</ele>
        <time>2012-11-25T09:07:07Z</time>
      </trkpt>
      <trkpt lat="45.945376083254814" lon="9.434475749731064">
        <ele>951.36000000000001</ele>
        <time>2012-11-25T09:07:20Z</time>
      </trkpt>
      <trkpt lat="45.945351859554648" lon="9.434519251808524">
        <ele>952.79999999999995</ele>
        <time>2012-11-25T09:07:31Z</time>
      </trkpt>
      <trkpt lat="45.945335011929274" lon="9.434524113312364">
        <ele>953.76999999999998</ele>
        <time>2012-11-25T09:07:33Z</time>
      </trkpt>
      <trkpt lat="45.945334257557988" lon="9.43441104143858">
        <ele>955.69000000000005</ele>
        <time>2012-11-25T09:07:47Z</time>
      </trkpt>
      <trkpt lat="45.945343812927604" lon="9.434309033676982">
        <ele>957.61000000000001</ele>
        <time>2012-11-25T09:08:03Z</time>
      </trkpt>
      <trkpt lat="45.945329563692212" lon="9.434230579063296">
        <ele>959.52999999999997</ele>
        <time>2012-11-25T09:08:18Z</time>
      </trkpt>
      <trkpt lat="45.945333587005734" lon="9.434107532724738">
        <ele>961.46000000000004</ele>
        <time>2012-11-25T09:08:33Z</time>
      </trkpt>
      <trkpt lat="45.945360492914915" lon="9.433991359546781">
        <ele>963.38</ele>
        <time>2012-11-25T09:08:48Z</time>
      </trkpt>
      <trkpt lat="45.945368958637118" lon="9.433940565213561">
        <ele>965.29999999999995</ele>
        <time>2012-11-25T09:09:02Z</time>
      </trkpt>
      <trkpt lat="45.945323528721929" lon="9.433879377320409">
        <ele>967.22000000000003</ele>
        <time>2012-11-25T09:09:16Z</time>
      </trkpt>
      <trkpt lat="45.945370383560658" lon="9.433801006525755">
        <ele>968.66999999999996</ele>
        <time>2012-11-25T09:09:33Z</time>
      </trkpt>
      <trkpt lat="45.945364432409406" lon="9.43381005898118">
        <ele>970.11000000000001</ele>
        <time>2012-11-25T09:09:46Z</time>
      </trkpt>
      <trkpt lat="45.945356218144298" lon="9.433730766177177">
        <ele>972.50999999999999</ele>
        <time>2012-11-25T09:09:58Z</time>
      </trkpt>
      <trkpt lat="45.945347417145967" lon="9.433675948530436">
        <ele>973.47000000000003</ele>
        <time>2012-11-25T09:10:03Z</time>
      </trkpt>
      <trkpt lat="45.945317661389709" lon="9.433572683483362">
        <ele>975.88</ele>
        <time>2012-11-25T09:10:18Z</time>
      </trkpt>
      <trkpt lat="45.945364180952311" lon="9.433438824489713">
        <ele>978.27999999999997</ele>
        <time>2012-11-25T09:10:33Z</time>
      </trkpt>
      <trkpt lat="45.945359151810408" lon="9.43334486335516">
        <ele>979.72000000000003</ele>
        <time>2012-11-25T09:10:45Z</time>
      </trkpt>
      <trkpt lat="45.945352278649807" lon="9.433336900547147">
        <ele>980.20000000000005</ele>
        <time>2012-11-25T09:10:46Z</time>
      </trkpt>
      <trkpt lat="45.945331491529942" lon="9.433213099837303">
        <ele>981.15999999999997</ele>
        <time>2012-11-25T09:10:58Z</time>
      </trkpt>
      <trkpt lat="45.945341298356652" lon="9.433189546689391">
        <ele>981.63999999999999</ele>
        <time>2012-11-25T09:11:01Z</time>
      </trkpt>
      <trkpt lat="45.945377424359322" lon="9.433081336319447">
        <ele>983.09000000000003</ele>
        <time>2012-11-25T09:11:13Z</time>
      </trkpt>
      <trkpt lat="45.945451017469168" lon="9.433002881705761">
        <ele>984.04999999999995</ele>
        <time>2012-11-25T09:11:26Z</time>
      </trkpt>
      <trkpt lat="45.945551013574004" lon="9.433061722666025">
        <ele>985.97000000000003</ele>
        <time>2012-11-25T09:11:42Z</time>
      </trkpt>
      <trkpt lat="45.945609603077173" lon="9.432991566136479">
        <ele>987.88999999999999</ele>
        <time>2012-11-25T09:11:57Z</time>
      </trkpt>
      <trkpt lat="45.945647908374667" lon="9.432919984683394">
        <ele>989.80999999999995</ele>
        <time>2012-11-25T09:12:09Z</time>
      </trkpt>
      <trkpt lat="45.945668360218406" lon="9.432872040197253">
        <ele>990.29999999999995</ele>
        <time>2012-11-25T09:12:24Z</time>
      </trkpt>
      <trkpt lat="45.945622511208057" lon="9.432800207287073">
        <ele>992.70000000000005</ele>
        <time>2012-11-25T09:12:39Z</time>
      </trkpt>
      <trkpt lat="45.945633742958307" lon="9.432701384648681">
        <ele>994.62</ele>
        <time>2012-11-25T09:12:52Z</time>
      </trkpt>
      <trkpt lat="45.945676323026419" lon="9.432607591152191">
        <ele>996.53999999999996</ele>
        <time>2012-11-25T09:13:05Z</time>
      </trkpt>
      <trkpt lat="45.945695182308555" lon="9.432502565905452">
        <ele>997.50999999999999</ele>
        <time>2012-11-25T09:13:18Z</time>
      </trkpt>
      <trkpt lat="45.945730386301875" lon="9.432375328615308">
        <ele>998.95000000000005</ele>
        <time>2012-11-25T09:13:33Z</time>
      </trkpt>
      <trkpt lat="45.945779755711555" lon="9.432262927293778">
        <ele>1000.87</ele>
        <time>2012-11-25T09:13:46Z</time>
      </trkpt>
      <trkpt lat="45.945874890312552" lon="9.432163182646036">
        <ele>1001.83</ele>
        <time>2012-11-25T09:14:01Z</time>
      </trkpt>
      <trkpt lat="45.945950830355287" lon="9.432145915925503">
        <ele>1003.27</ele>
        <time>2012-11-25T09:14:13Z</time>
      </trkpt>
      <trkpt lat="45.946023249998689" lon="9.43210911937058">
        <ele>1005.2</ele>
        <time>2012-11-25T09:14:28Z</time>
      </trkpt>
      <trkpt lat="45.946092400699854" lon="9.432041645050049">
        <ele>1008.08</ele>
        <time>2012-11-25T09:14:43Z</time>
      </trkpt>
      <trkpt lat="45.946145709604025" lon="9.431975344195962">
        <ele>1009.52</ele>
        <time>2012-11-25T09:14:58Z</time>
      </trkpt>
      <trkpt lat="45.946174208074808" lon="9.431924801319838">
        <ele>1011.4400000000001</ele>
        <time>2012-11-25T09:15:10Z</time>
      </trkpt>
      <trkpt lat="45.94615375623107" lon="9.431845005601645">
        <ele>1013.85</ele>
        <time>2012-11-25T09:15:23Z</time>
      </trkpt>
      <trkpt lat="45.946127772331238" lon="9.431765545159578">
        <ele>1015.77</ele>
        <time>2012-11-25T09:15:32Z</time>
      </trkpt>
      <trkpt lat="45.94608636572957" lon="9.431657083332539">
        <ele>1016.73</ele>
        <time>2012-11-25T09:15:45Z</time>
      </trkpt>
      <trkpt lat="45.946039259433746" lon="9.431571001186967">
        <ele>1018.17</ele>
        <time>2012-11-25T09:15:59Z</time>
      </trkpt>
      <trkpt lat="45.945969605818391" lon="9.431480979546905">
        <ele>1020.1</ele>
        <time>2012-11-25T09:16:14Z</time>
      </trkpt>
      <trkpt lat="45.945915458723903" lon="9.43136447109282">
        <ele>1022.02</ele>
        <time>2012-11-25T09:16:29Z</time>
      </trkpt>
      <trkpt lat="45.945839267224073" lon="9.431267743930221">
        <ele>1024.4200000000001</ele>
        <time>2012-11-25T09:16:45Z</time>
      </trkpt>
      <trkpt lat="45.945779420435429" lon="9.431200604885817">
        <ele>1025.8599999999999</ele>
        <time>2012-11-25T09:16:58Z</time>
      </trkpt>
      <trkpt lat="45.945754023268819" lon="9.431169759482145">
        <ele>1027.3099999999999</ele>
        <time>2012-11-25T09:17:04Z</time>
      </trkpt>
      <trkpt lat="45.945685375481844" lon="9.431081330403686">
        <ele>1029.23</ele>
        <time>2012-11-25T09:17:18Z</time>
      </trkpt>
      <trkpt lat="45.9456548653543" lon="9.430986195802689">
        <ele>1031.1500000000001</ele>
        <time>2012-11-25T09:17:30Z</time>
      </trkpt>
      <trkpt lat="45.945602729916573" lon="9.430892569944263">
        <ele>1033.0699999999999</ele>
        <time>2012-11-25T09:17:43Z</time>
      </trkpt>
      <trkpt lat="45.945505499839783" lon="9.430795004591346">
        <ele>1035.48</ele>
        <time>2012-11-25T09:17:59Z</time>
      </trkpt>
      <trkpt lat="45.945435594767332" lon="9.430734487250447">
        <ele>1037.8800000000001</ele>
        <time>2012-11-25T09:18:11Z</time>
      </trkpt>
      <trkpt lat="45.945354457944632" lon="9.430634826421738">
        <ele>1039.8</ele>
        <time>2012-11-25T09:18:25Z</time>
      </trkpt>
      <trkpt lat="45.945286145433784" lon="9.430559892207384">
        <ele>1041.73</ele>
        <time>2012-11-25T09:18:39Z</time>
      </trkpt>
      <trkpt lat="45.94525664113462" lon="9.430430391803384">
        <ele>1044.6099999999999</ele>
        <time>2012-11-25T09:18:54Z</time>
      </trkpt>
      <trkpt lat="45.945277595892549" lon="9.430342046543956">
        <ele>1047.01</ele>
        <time>2012-11-25T09:19:06Z</time>
      </trkpt>
      <trkpt lat="45.945282122120261" lon="9.430341543629766">
        <ele>1046.53</ele>
        <time>2012-11-25T09:19:23Z</time>
      </trkpt>
      <trkpt lat="45.945287402719259" lon="9.430397534742951">
        <ele>1046.53</ele>
        <time>2012-11-25T09:19:37Z</time>
      </trkpt>
      <trkpt lat="45.945272063836455" lon="9.430331904441118">
        <ele>1046.53</ele>
        <time>2012-11-25T09:19:47Z</time>
      </trkpt>
      <trkpt lat="45.945226047188044" lon="9.430242134258151">
        <ele>1048.9400000000001</ele>
        <time>2012-11-25T09:19:59Z</time>
      </trkpt>
      <trkpt lat="45.945209870114923" lon="9.430215479806066">
        <ele>1048.9400000000001</ele>
        <time>2012-11-25T09:20:14Z</time>
      </trkpt>
      <trkpt lat="45.945200230926275" lon="9.430194273591042">
        <ele>1049.4200000000001</ele>
        <time>2012-11-25T09:20:17Z</time>
      </trkpt>
      <trkpt lat="45.945210792124271" lon="9.430117076262832">
        <ele>1050.8599999999999</ele>
        <time>2012-11-25T09:20:28Z</time>
      </trkpt>
      <trkpt lat="45.945217665284872" lon="9.43017759360373">
        <ele>1050.3800000000001</ele>
        <time>2012-11-25T09:20:44Z</time>
      </trkpt>
      <trkpt lat="45.945197381079197" lon="9.430178767070174">
        <ele>1049.9000000000001</ele>
        <time>2012-11-25T09:20:55Z</time>
      </trkpt>
      <trkpt lat="45.945209870114923" lon="9.430200727656484">
        <ele>1050.8599999999999</ele>
        <time>2012-11-25T09:21:10Z</time>
      </trkpt>
      <trkpt lat="45.94525127671659" lon="9.430306842550635">
        <ele>1048.45</ele>
        <time>2012-11-25T09:21:24Z</time>
      </trkpt>
      <trkpt lat="45.945270471274853" lon="9.430329976603389">
        <ele>1047.49</ele>
        <time>2012-11-25T09:21:29Z</time>
      </trkpt>
      <trkpt lat="45.945292683318257" lon="9.430347494781017">
        <ele>1047.01</ele>
        <time>2012-11-25T09:21:41Z</time>
      </trkpt>
      <trkpt lat="45.945293186232448" lon="9.430369455367327">
        <ele>1047.01</ele>
        <time>2012-11-25T09:21:52Z</time>
      </trkpt>
      <trkpt lat="45.945325288921595" lon="9.430363923311234">
        <ele>1046.53</ele>
        <time>2012-11-25T09:22:08Z</time>
      </trkpt>
      <trkpt lat="45.945313218981028" lon="9.430349841713905">
        <ele>1046.05</ele>
        <time>2012-11-25T09:22:31Z</time>
      </trkpt>
      <trkpt lat="45.945281786844134" lon="9.430332407355309">
        <ele>1046.05</ele>
        <time>2012-11-25T09:22:50Z</time>
      </trkpt>
      <trkpt lat="45.945226633921266" lon="9.43028555251658">
        <ele>1047.49</ele>
        <time>2012-11-25T09:23:01Z</time>
      </trkpt>
      <trkpt lat="45.945206433534622" lon="9.4302396196872">
        <ele>1048.45</ele>
        <time>2012-11-25T09:23:14Z</time>
      </trkpt>
      <trkpt lat="45.94520190730691" lon="9.430215815082192">
        <ele>1048.45</ele>
        <time>2012-11-25T09:23:37Z</time>
      </trkpt>
      <trkpt lat="45.945194279775023" lon="9.430216401815414">
        <ele>1048.45</ele>
        <time>2012-11-25T09:23:52Z</time>
      </trkpt>
      <trkpt lat="45.945191932842135" lon="9.430139036849141">
        <ele>1049.4200000000001</ele>
        <time>2012-11-25T09:24:08Z</time>
      </trkpt>
      <trkpt lat="45.94520484097302" lon="9.430109532549977">
        <ele>1049.9000000000001</ele>
        <time>2012-11-25T09:24:20Z</time>
      </trkpt>
      <trkpt lat="45.945197464898229" lon="9.430154208093882">
        <ele>1050.8599999999999</ele>
        <time>2012-11-25T09:24:39Z</time>
      </trkpt>
      <trkpt lat="45.945200733840466" lon="9.430123111233115">
        <ele>1050.3800000000001</ele>
        <time>2012-11-25T09:25:05Z</time>
      </trkpt>
      <trkpt lat="45.945205092430115" lon="9.430126799270511">
        <ele>1050.8599999999999</ele>
        <time>2012-11-25T09:25:31Z</time>
      </trkpt>
      <trkpt lat="45.945189250633121" lon="9.430150603875518">
        <ele>1050.8599999999999</ele>
        <time>2012-11-25T09:26:03Z</time>
      </trkpt>
      <trkpt lat="45.945193441584706" lon="9.430190501734614">
        <ele>1050.8599999999999</ele>
        <time>2012-11-25T09:26:26Z</time>
      </trkpt>
      <trkpt lat="45.945185394957662" lon="9.430206511169672">
        <ele>1049.9000000000001</ele>
        <time>2012-11-25T09:26:38Z</time>
      </trkpt>
      <trkpt lat="45.945200063288212" lon="9.430189076811075">
        <ele>1050.3800000000001</ele>
        <time>2012-11-25T09:26:55Z</time>
      </trkpt>
      <trkpt lat="45.945202577859163" lon="9.430160326883197">
        <ele>1050.3800000000001</ele>
        <time>2012-11-25T09:27:14Z</time>
      </trkpt>
      <trkpt lat="45.945202326402068" lon="9.430136354640126">
        <ele>1050.8599999999999</ele>
        <time>2012-11-25T09:27:29Z</time>
      </trkpt>
      <trkpt lat="45.94524348154664" lon="9.430071227252483">
        <ele>1051.8199999999999</ele>
        <time>2012-11-25T09:27:42Z</time>
      </trkpt>
      <trkpt lat="45.945335179567337" lon="9.429939044639468">
        <ele>1053.74</ele>
        <time>2012-11-25T09:27:58Z</time>
      </trkpt>
      <trkpt lat="45.945383543148637" lon="9.429927142336965">
        <ele>1054.7</ele>
        <time>2012-11-25T09:28:09Z</time>
      </trkpt>
      <trkpt lat="45.94538077712059" lon="9.429891183972359">
        <ele>1054.7</ele>
        <time>2012-11-25T09:28:23Z</time>
      </trkpt>
      <trkpt lat="45.945448335260153" lon="9.429797390475869">
        <ele>1056.1500000000001</ele>
        <time>2012-11-25T09:28:34Z</time>
      </trkpt>
      <trkpt lat="45.945537015795708" lon="9.42972999997437">
        <ele>1058.0699999999999</ele>
        <time>2012-11-25T09:28:48Z</time>
      </trkpt>
      <trkpt lat="45.945616476237774" lon="9.429669734090567">
        <ele>1059.51</ele>
        <time>2012-11-25T09:29:00Z</time>
      </trkpt>
      <trkpt lat="45.945685207843781" lon="9.429649282246828">
        <ele>1060.95</ele>
        <time>2012-11-25T09:29:09Z</time>
      </trkpt>
      <trkpt lat="45.94574430026114" lon="9.429613659158349">
        <ele>1061.9100000000001</ele>
        <time>2012-11-25T09:29:23Z</time>
      </trkpt>
      <trkpt lat="45.945743294432759" lon="9.42962983623147">
        <ele>1062.8699999999999</ele>
        <time>2012-11-25T09:29:40Z</time>
      </trkpt>
      <trkpt lat="45.94575553201139" lon="9.429615922272205">
        <ele>1062.8699999999999</ele>
        <time>2012-11-25T09:29:42Z</time>
      </trkpt>
      <trkpt lat="45.945815965533257" lon="9.42960879765451">
        <ele>1062.3900000000001</ele>
        <time>2012-11-25T09:29:48Z</time>
      </trkpt>
      <trkpt lat="45.945922499522567" lon="9.429596476256847">
        <ele>1063.8399999999999</ele>
        <time>2012-11-25T09:30:04Z</time>
      </trkpt>
      <trkpt lat="45.94593096524477" lon="9.429561858996749">
        <ele>1064.3199999999999</ele>
        <time>2012-11-25T09:30:11Z</time>
      </trkpt>
      <trkpt lat="45.946093993261456" lon="9.429418109357357">
        <ele>1066.24</ele>
        <time>2012-11-25T09:30:27Z</time>
      </trkpt>
      <trkpt lat="45.946198096498847" lon="9.429321717470884">
        <ele>1067.6800000000001</ele>
        <time>2012-11-25T09:30:39Z</time>
      </trkpt>
      <trkpt lat="45.946224583312869" lon="9.429309144616127">
        <ele>1068.1600000000001</ele>
        <time>2012-11-25T09:30:41Z</time>
      </trkpt>
      <trkpt lat="45.946329357102513" lon="9.429201353341341">
        <ele>1069.1199999999999</ele>
        <time>2012-11-25T09:30:56Z</time>
      </trkpt>
      <trkpt lat="45.946368332952261" lon="9.429134214296937">
        <ele>1069.1199999999999</ele>
        <time>2012-11-25T09:31:01Z</time>
      </trkpt>
      <trkpt lat="45.946486433967948" lon="9.428989123553038">
        <ele>1069.5999999999999</ele>
        <time>2012-11-25T09:31:11Z</time>
      </trkpt>
      <trkpt lat="45.946542927995324" lon="9.428919134661555">
        <ele>1069.5999999999999</ele>
        <time>2012-11-25T09:31:16Z</time>
      </trkpt>
      <trkpt lat="45.946659855544567" lon="9.428853085264564">
        <ele>1069.5999999999999</ele>
        <time>2012-11-25T09:31:24Z</time>
      </trkpt>
      <trkpt lat="45.946727329865098" lon="9.428796423599124">
        <ele>1069.5999999999999</ele>
        <time>2012-11-25T09:31:29Z</time>
      </trkpt>
      <trkpt lat="45.946783740073442" lon="9.428763817995787">
        <ele>1070.0799999999999</ele>
        <time>2012-11-25T09:31:33Z</time>
      </trkpt>
      <trkpt lat="45.94693654216826" lon="9.428739761933684">
        <ele>1069.5999999999999</ele>
        <time>2012-11-25T09:31:45Z</time>
      </trkpt>
      <trkpt lat="45.947036789730191" lon="9.428635155782104">
        <ele>1069.5999999999999</ele>
        <time>2012-11-25T09:31:58Z</time>
      </trkpt>
      <trkpt lat="45.947044920176268" lon="9.428623672574759">
        <ele>1069.5999999999999</ele>
        <time>2012-11-25T09:31:59Z</time>
      </trkpt>
      <trkpt lat="45.947123039513826" lon="9.428498027846217">
        <ele>1068.6400000000001</ele>
        <time>2012-11-25T09:32:09Z</time>
      </trkpt>
      <trkpt lat="45.947155561298132" lon="9.428443629294634">
        <ele>1067.6800000000001</ele>
        <time>2012-11-25T09:32:13Z</time>
      </trkpt>
      <trkpt lat="45.947230160236359" lon="9.428349416702986">
        <ele>1066.24</ele>
        <time>2012-11-25T09:32:27Z</time>
      </trkpt>
      <trkpt lat="45.947232255712152" lon="9.428312284871936">
        <ele>1066.72</ele>
        <time>2012-11-25T09:32:37Z</time>
      </trkpt>
      <trkpt lat="45.947361756116152" lon="9.428114807233214">
        <ele>1064.3199999999999</ele>
        <time>2012-11-25T09:32:53Z</time>
      </trkpt>
      <trkpt lat="45.947437947615981" lon="9.427953790873289">
        <ele>1062.8699999999999</ele>
        <time>2012-11-25T09:33:05Z</time>
      </trkpt>
      <trkpt lat="45.947551941499114" lon="9.427721695974469">
        <ele>1061.4300000000001</ele>
        <time>2012-11-25T09:33:19Z</time>
      </trkpt>
      <trkpt lat="45.947571219876409" lon="9.427685989066958">
        <ele>1061.4300000000001</ele>
        <time>2012-11-25T09:33:21Z</time>
      </trkpt>
      <trkpt lat="45.947572560980916" lon="9.427547184750438">
        <ele>1060.47</ele>
        <time>2012-11-25T09:33:28Z</time>
      </trkpt>
      <trkpt lat="45.947576416656375" lon="9.427513405680656">
        <ele>1060.95</ele>
        <time>2012-11-25T09:33:44Z</time>
      </trkpt>
      <trkpt lat="45.947566861286759" lon="9.427497647702694">
        <ele>1060.47</ele>
        <time>2012-11-25T09:33:56Z</time>
      </trkpt>
      <trkpt lat="45.947540206834674" lon="9.427521200850606">
        <ele>1060.95</ele>
        <time>2012-11-25T09:34:00Z</time>
      </trkpt>
      <trkpt lat="45.947438031435013" lon="9.427430341020227">
        <ele>1061.9100000000001</ele>
        <time>2012-11-25T09:34:14Z</time>
      </trkpt>
      <trkpt lat="45.947427805513144" lon="9.427414750680327">
        <ele>1061.9100000000001</ele>
        <time>2012-11-25T09:34:16Z</time>
      </trkpt>
      <trkpt lat="45.947379693388939" lon="9.427311569452286">
        <ele>1064.8</ele>
        <time>2012-11-25T09:34:30Z</time>
      </trkpt>
      <trkpt lat="45.947286067530513" lon="9.427348952740431">
        <ele>1067.2</ele>
        <time>2012-11-25T09:34:42Z</time>
      </trkpt>
      <trkpt lat="45.947198811918497" lon="9.427380301058292">
        <ele>1069.5999999999999</ele>
        <time>2012-11-25T09:34:54Z</time>
      </trkpt>
      <trkpt lat="45.947119770571589" lon="9.427379798144102">
        <ele>1072.01</ele>
        <time>2012-11-25T09:35:06Z</time>
      </trkpt>
      <trkpt lat="45.947051038965583" lon="9.427398573607206">
        <ele>1073.9300000000001</ele>
        <time>2012-11-25T09:35:18Z</time>
      </trkpt>
      <trkpt lat="45.946997059509158" lon="9.42740804515779">
        <ele>1075.3699999999999</ele>
        <time>2012-11-25T09:35:24Z</time>
      </trkpt>
      <trkpt lat="45.946900919079781" lon="9.427446937188506">
        <ele>1077.78</ele>
        <time>2012-11-25T09:35:36Z</time>
      </trkpt>
      <trkpt lat="45.946811567991972" lon="9.427412990480661">
        <ele>1078.74</ele>
        <time>2012-11-25T09:35:48Z</time>
      </trkpt>
      <trkpt lat="45.946740824729204" lon="9.42733964882791">
        <ele>1082.0999999999999</ele>
        <time>2012-11-25T09:36:01Z</time>
      </trkpt>
      <trkpt lat="45.946717271581292" lon="9.427329087629914">
        <ele>1082.5799999999999</ele>
        <time>2012-11-25T09:36:07Z</time>
      </trkpt>
      <trkpt lat="45.946626411750913" lon="9.427281394600868">
        <ele>1085.95</ele>
        <time>2012-11-25T09:36:21Z</time>
      </trkpt>
      <trkpt lat="45.946534797549248" lon="9.427275946363807">
        <ele>1087.8699999999999</ele>
        <time>2012-11-25T09:36:34Z</time>
      </trkpt>
      <trkpt lat="45.946453912183642" lon="9.427245352417231">
        <ele>1090.75</ele>
        <time>2012-11-25T09:36:48Z</time>
      </trkpt>
      <trkpt lat="45.946391299366951" lon="9.427223224192858">
        <ele>1093.6400000000001</ele>
        <time>2012-11-25T09:37:00Z</time>
      </trkpt>
      <trkpt lat="45.946314102038741" lon="9.42717251367867">
        <ele>1096.04</ele>
        <time>2012-11-25T09:37:12Z</time>
      </trkpt>
      <trkpt lat="45.946233300492167" lon="9.427151642739773">
        <ele>1099.4000000000001</ele>
        <time>2012-11-25T09:37:25Z</time>
      </trkpt>
      <trkpt lat="45.946164987981319" lon="9.427104955539107">
        <ele>1101.3299999999999</ele>
        <time>2012-11-25T09:37:38Z</time>
      </trkpt>
      <trkpt lat="45.946159875020385" lon="9.427100764587522">
        <ele>1101.8099999999999</ele>
        <time>2012-11-25T09:37:39Z</time>
      </trkpt>
      <trkpt lat="45.946119893342257" lon="9.427035637199879">
        <ele>1103.25</ele>
        <time>2012-11-25T09:37:53Z</time>
      </trkpt>
      <trkpt lat="45.946107404306531" lon="9.427031613886356">
        <ele>1103.25</ele>
        <time>2012-11-25T09:38:14Z</time>
      </trkpt>
      <trkpt lat="45.946144955232739" lon="9.426883338019252">
        <ele>1105.6500000000001</ele>
        <time>2012-11-25T09:38:27Z</time>
      </trkpt>
      <trkpt lat="45.946151996031404" lon="9.426772361621261">
        <ele>1107.5799999999999</ele>
        <time>2012-11-25T09:38:40Z</time>
      </trkpt>
      <trkpt lat="45.94614596106112" lon="9.42672785371542">
        <ele>1108.0599999999999</ele>
        <time>2012-11-25T09:38:59Z</time>
      </trkpt>
      <trkpt lat="45.946173872798681" lon="9.426600113511086">
        <ele>1110.9400000000001</ele>
        <time>2012-11-25T09:39:11Z</time>
      </trkpt>
      <trkpt lat="45.946231205016375" lon="9.426498608663678">
        <ele>1114.3099999999999</ele>
        <time>2012-11-25T09:39:24Z</time>
      </trkpt>
      <trkpt lat="45.946238916367292" lon="9.42636676132679">
        <ele>1116.23</ele>
        <time>2012-11-25T09:39:38Z</time>
      </trkpt>
      <trkpt lat="45.946244364604354" lon="9.426243044435978">
        <ele>1118.1500000000001</ele>
        <time>2012-11-25T09:39:52Z</time>
      </trkpt>
      <trkpt lat="45.946248304098845" lon="9.426124105229974">
        <ele>1120.0699999999999</ele>
        <time>2012-11-25T09:40:06Z</time>
      </trkpt>
      <trkpt lat="45.946257021278143" lon="9.426034754142165">
        <ele>1121.52</ele>
        <time>2012-11-25T09:40:18Z</time>
      </trkpt>
      <trkpt lat="45.94627738930285" lon="9.425871474668384">
        <ele>1123.9200000000001</ele>
        <time>2012-11-25T09:40:34Z</time>
      </trkpt>
      <trkpt lat="45.946300607174635" lon="9.425722947344184">
        <ele>1125.3599999999999</ele>
        <time>2012-11-25T09:40:46Z</time>
      </trkpt>
      <trkpt lat="45.946318209171295" lon="9.425578359514475">
        <ele>1127.28</ele>
        <time>2012-11-25T09:41:01Z</time>
      </trkpt>
      <trkpt lat="45.946320304647088" lon="9.425470065325499">
        <ele>1129.21</ele>
        <time>2012-11-25T09:41:15Z</time>
      </trkpt>
      <trkpt lat="45.946338074281812" lon="9.425342828035355">
        <ele>1131.6099999999999</ele>
        <time>2012-11-25T09:41:30Z</time>
      </trkpt>
      <trkpt lat="45.946358442306519" lon="9.425206119194627">
        <ele>1133.53</ele>
        <time>2012-11-25T09:41:43Z</time>
      </trkpt>
      <trkpt lat="45.94637755304575" lon="9.42504845559597">
        <ele>1135.9400000000001</ele>
        <time>2012-11-25T09:41:58Z</time>
      </trkpt>
      <trkpt lat="45.94640932045877" lon="9.424883583560586">
        <ele>1137.8599999999999</ele>
        <time>2012-11-25T09:42:13Z</time>
      </trkpt>
      <trkpt lat="45.94639859162271" lon="9.424771685153246">
        <ele>1140.26</ele>
        <time>2012-11-25T09:42:26Z</time>
      </trkpt>
      <trkpt lat="45.946436561644077" lon="9.424699181690812">
        <ele>1142.1800000000001</ele>
        <time>2012-11-25T09:42:37Z</time>
      </trkpt>
      <trkpt lat="45.946482913568616" lon="9.424891881644726">
        <ele>1144.5899999999999</ele>
        <time>2012-11-25T09:42:52Z</time>
      </trkpt>
      <trkpt lat="45.946530271321535" lon="9.425032027065754">
        <ele>1146.51</ele>
        <time>2012-11-25T09:43:07Z</time>
      </trkpt>
      <trkpt lat="45.946581065654755" lon="9.42513344809413">
        <ele>1148.4300000000001</ele>
        <time>2012-11-25T09:43:22Z</time>
      </trkpt>
      <trkpt lat="45.946653401479125" lon="9.42526638507843">
        <ele>1150.3499999999999</ele>
        <time>2012-11-25T09:43:36Z</time>
      </trkpt>
      <trkpt lat="45.946711236611009" lon="9.425341403111816">
        <ele>1153.24</ele>
        <time>2012-11-25T09:43:51Z</time>
      </trkpt>
      <trkpt lat="45.946791619062424" lon="9.425353808328509">
        <ele>1155.1600000000001</ele>
        <time>2012-11-25T09:44:03Z</time>
      </trkpt>
      <trkpt lat="45.946884993463755" lon="9.425380798056722">
        <ele>1158.05</ele>
        <time>2012-11-25T09:44:19Z</time>
      </trkpt>
      <trkpt lat="45.946902008727193" lon="9.425360346212983">
        <ele>1160.45</ele>
        <time>2012-11-25T09:44:31Z</time>
      </trkpt>
      <trkpt lat="45.946861943230033" lon="9.425247944891453">
        <ele>1162.3699999999999</ele>
        <time>2012-11-25T09:44:45Z</time>
      </trkpt>
      <trkpt lat="45.946832103654742" lon="9.425075780600309">
        <ele>1164.77</ele>
        <time>2012-11-25T09:45:00Z</time>
      </trkpt>
      <trkpt lat="45.946828247979283" lon="9.424961870536208">
        <ele>1166.7</ele>
        <time>2012-11-25T09:45:13Z</time>
      </trkpt>
      <trkpt lat="45.946845933794975" lon="9.424844859167934">
        <ele>1169.0999999999999</ele>
        <time>2012-11-25T09:45:26Z</time>
      </trkpt>
      <trkpt lat="45.946926735341549" lon="9.42486715503037">
        <ele>1171.02</ele>
        <time>2012-11-25T09:45:40Z</time>
      </trkpt>
      <trkpt lat="45.947014074772596" lon="9.424900598824024">
        <ele>1173.9100000000001</ele>
        <time>2012-11-25T09:45:56Z</time>
      </trkpt>
      <trkpt lat="45.947057995945215" lon="9.424883415922523">
        <ele>1175.8299999999999</ele>
        <time>2012-11-25T09:46:09Z</time>
      </trkpt>
      <trkpt lat="45.947068640962243" lon="9.424777803942561">
        <ele>1178.23</ele>
        <time>2012-11-25T09:46:25Z</time>
      </trkpt>
      <trkpt lat="45.947066210210323" lon="9.424643944948912">
        <ele>1181.5999999999999</ele>
        <time>2012-11-25T09:46:39Z</time>
      </trkpt>
      <trkpt lat="45.947131589055061" lon="9.424581583589315">
        <ele>1184</ele>
        <time>2012-11-25T09:46:52Z</time>
      </trkpt>
      <trkpt lat="45.947204595431685" lon="9.424517378211021">
        <ele>1186.4000000000001</ele>
        <time>2012-11-25T09:47:06Z</time>
      </trkpt>
      <trkpt lat="45.947216749191284" lon="9.424464572221041">
        <ele>1186.8800000000001</ele>
        <time>2012-11-25T09:47:10Z</time>
      </trkpt>
      <trkpt lat="45.947216413915157" lon="9.42434043623507">
        <ele>1189.29</ele>
        <time>2012-11-25T09:47:25Z</time>
      </trkpt>
      <trkpt lat="45.947247426956892" lon="9.42422753199935">
        <ele>1190.73</ele>
        <time>2012-11-25T09:47:36Z</time>
      </trkpt>
      <trkpt lat="45.947275338694453" lon="9.424064420163631">
        <ele>1193.1300000000001</ele>
        <time>2012-11-25T09:47:53Z</time>
      </trkpt>
      <trkpt lat="45.947296880185604" lon="9.423909103497863">
        <ele>1195.0599999999999</ele>
        <time>2012-11-25T09:48:07Z</time>
      </trkpt>
      <trkpt lat="45.947320014238358" lon="9.423733334988356">
        <ele>1195.54</ele>
        <time>2012-11-25T09:48:21Z</time>
      </trkpt>
      <trkpt lat="45.947394948452711" lon="9.423599475994706">
        <ele>1197.9400000000001</ele>
        <time>2012-11-25T09:48:36Z</time>
      </trkpt>
      <trkpt lat="45.947395451366901" lon="9.423467461019754">
        <ele>1200.3399999999999</ele>
        <time>2012-11-25T09:48:49Z</time>
      </trkpt>
      <trkpt lat="45.947394780814648" lon="9.42345748655498">
        <ele>1200.3399999999999</ele>
        <time>2012-11-25T09:48:50Z</time>
      </trkpt>
      <trkpt lat="45.947360079735518" lon="9.42328842356801">
        <ele>1202.75</ele>
        <time>2012-11-25T09:49:06Z</time>
      </trkpt>
      <trkpt lat="45.947309704497457" lon="9.423158839344978">
        <ele>1204.1900000000001</ele>
        <time>2012-11-25T09:49:20Z</time>
      </trkpt>
      <trkpt lat="45.947277434170246" lon="9.422992961481214">
        <ele>1205.1500000000001</ele>
        <time>2012-11-25T09:49:34Z</time>
      </trkpt>
      <trkpt lat="45.947232590988278" lon="9.422845439985395">
        <ele>1207.0699999999999</ele>
        <time>2012-11-25T09:49:48Z</time>
      </trkpt>
      <trkpt lat="45.947179533541203" lon="9.422694062814117">
        <ele>1208.51</ele>
        <time>2012-11-25T09:50:04Z</time>
      </trkpt>
      <trkpt lat="45.947161680087447" lon="9.422654500231147">
        <ele>1209.48</ele>
        <time>2012-11-25T09:50:08Z</time>
      </trkpt>
      <trkpt lat="45.947081213817" lon="9.42249147221446">
        <ele>1210.9200000000001</ele>
        <time>2012-11-25T09:50:25Z</time>
      </trkpt>
      <trkpt lat="45.947070401161909" lon="9.422459285706282">
        <ele>1210.9200000000001</ele>
        <time>2012-11-25T09:50:28Z</time>
      </trkpt>
      <trkpt lat="45.946970991790295" lon="9.422243451699615">
        <ele>1210.9200000000001</ele>
        <time>2012-11-25T09:50:46Z</time>
      </trkpt>
      <trkpt lat="45.946922460570931" lon="9.422146389260888">
        <ele>1211.8800000000001</ele>
        <time>2012-11-25T09:50:55Z</time>
      </trkpt>
      <trkpt lat="45.946822296828032" lon="9.422068018466234">
        <ele>1213.3199999999999</ele>
        <time>2012-11-25T09:51:09Z</time>
      </trkpt>
      <trkpt lat="45.946774268522859" lon="9.422083524987102">
        <ele>1215.24</ele>
        <time>2012-11-25T09:51:23Z</time>
      </trkpt>
      <trkpt lat="45.946685587987304" lon="9.422158040106297">
        <ele>1218.1300000000001</ele>
        <time>2012-11-25T09:51:39Z</time>
      </trkpt>
      <trkpt lat="45.946588441729546" lon="9.422227861359716">
        <ele>1220.53</ele>
        <time>2012-11-25T09:51:55Z</time>
      </trkpt>
      <trkpt lat="45.946535719558597" lon="9.422269100323319">
        <ele>1221.97</ele>
        <time>2012-11-25T09:52:06Z</time>
      </trkpt>
      <trkpt lat="45.946442009881139" lon="9.422336490824819">
        <ele>1223.9000000000001</ele>
        <time>2012-11-25T09:52:21Z</time>
      </trkpt>
      <trkpt lat="45.946351233869791" lon="9.422369934618473">
        <ele>1225.3399999999999</ele>
        <time>2012-11-25T09:52:35Z</time>
      </trkpt>
      <trkpt lat="45.946265487000346" lon="9.422366917133331">
        <ele>1227.26</ele>
        <time>2012-11-25T09:52:49Z</time>
      </trkpt>
      <trkpt lat="45.946183511987329" lon="9.422330623492599">
        <ele>1228.7</ele>
        <time>2012-11-25T09:53:03Z</time>
      </trkpt>
      <trkpt lat="45.946163479238749" lon="9.422286869958043">
        <ele>1228.7</ele>
        <time>2012-11-25T09:53:26Z</time>
      </trkpt>
      <trkpt lat="45.946122156456113" lon="9.422345124185085">
        <ele>1229.1800000000001</ele>
        <time>2012-11-25T09:53:43Z</time>
      </trkpt>
      <trkpt lat="45.946116792038083" lon="9.422382926568389">
        <ele>1229.1800000000001</ele>
        <time>2012-11-25T09:53:48Z</time>
      </trkpt>
      <trkpt lat="45.946094328537583" lon="9.42240547388792">
        <ele>1228.22</ele>
        <time>2012-11-25T09:54:03Z</time>
      </trkpt>
      <trkpt lat="45.946082761511207" lon="9.422311177477241">
        <ele>1229.6600000000001</ele>
        <time>2012-11-25T09:54:20Z</time>
      </trkpt>
      <trkpt lat="45.946039929986" lon="9.422304974868894">
        <ele>1230.6199999999999</ele>
        <time>2012-11-25T09:54:25Z</time>
      </trkpt>
      <trkpt lat="45.945914704352617" lon="9.422249319031835">
        <ele>1233.03</ele>
        <time>2012-11-25T09:54:41Z</time>
      </trkpt>
      <trkpt lat="45.945790568366647" lon="9.422213863581419">
        <ele>1233.99</ele>
        <time>2012-11-25T09:54:54Z</time>
      </trkpt>
      <trkpt lat="45.945725440979004" lon="9.422181928530335">
        <ele>1234.47</ele>
        <time>2012-11-25T09:55:05Z</time>
      </trkpt>
      <trkpt lat="45.945658218115568" lon="9.422067347913981">
        <ele>1235.9100000000001</ele>
        <time>2012-11-25T09:55:19Z</time>
      </trkpt>
      <trkpt lat="45.945606585592031" lon="9.421970956027508">
        <ele>1237.8299999999999</ele>
        <time>2012-11-25T09:55:30Z</time>
      </trkpt>
      <trkpt lat="45.945531232282519" lon="9.421815220266581">
        <ele>1238.8</ele>
        <time>2012-11-25T09:55:45Z</time>
      </trkpt>
      <trkpt lat="45.945445485413074" lon="9.421717068180442">
        <ele>1239.76</ele>
        <time>2012-11-25T09:55:58Z</time>
      </trkpt>
      <trkpt lat="45.94536367803812" lon="9.421623945236206">
        <ele>1240.72</ele>
        <time>2012-11-25T09:56:10Z</time>
      </trkpt>
      <trkpt lat="45.945265023037791" lon="9.421513807028532">
        <ele>1242.6400000000001</ele>
        <time>2012-11-25T09:56:25Z</time>
      </trkpt>
      <trkpt lat="45.945204421877861" lon="9.421431412920356">
        <ele>1243.1199999999999</ele>
        <time>2012-11-25T09:56:38Z</time>
      </trkpt>
      <trkpt lat="45.945062935352325" lon="9.421325633302331">
        <ele>1243.5999999999999</ele>
        <time>2012-11-25T09:56:53Z</time>
      </trkpt>
      <trkpt lat="45.944958999752998" lon="9.421214489266276">
        <ele>1244.0799999999999</ele>
        <time>2012-11-25T09:57:05Z</time>
      </trkpt>
      <trkpt lat="45.94489605166018" lon="9.421117175370455">
        <ele>1244.0799999999999</ele>
        <time>2012-11-25T09:57:13Z</time>
      </trkpt>
      <trkpt lat="45.944857997819781" lon="9.421002175658941">
        <ele>1245.04</ele>
        <time>2012-11-25T09:57:21Z</time>
      </trkpt>
      <trkpt lat="45.944820111617446" lon="9.420781144872308">
        <ele>1246.01</ele>
        <time>2012-11-25T09:57:37Z</time>
      </trkpt>
      <trkpt lat="45.944756576791406" lon="9.420664301142097">
        <ele>1246.97</ele>
        <time>2012-11-25T09:57:50Z</time>
      </trkpt>
      <trkpt lat="45.944704189896584" lon="9.420631192624569">
        <ele>1247.45</ele>
        <time>2012-11-25T09:57:57Z</time>
      </trkpt>
      <trkpt lat="45.944627998396754" lon="9.420582912862301">
        <ele>1248.4100000000001</ele>
        <time>2012-11-25T09:58:09Z</time>
      </trkpt>
      <trkpt lat="45.944512244313955" lon="9.420552486553788">
        <ele>1250.3299999999999</ele>
        <time>2012-11-25T09:58:25Z</time>
      </trkpt>
      <trkpt lat="45.944494055584073" lon="9.420540248975158">
        <ele>1250.3299999999999</ele>
        <time>2012-11-25T09:58:28Z</time>
      </trkpt>
      <trkpt lat="45.944428844377398" lon="9.420552989467979">
        <ele>1251.77</ele>
        <time>2012-11-25T09:58:39Z</time>
      </trkpt>
      <trkpt lat="45.944346031174064" lon="9.420589115470648">
        <ele>1253.22</ele>
        <time>2012-11-25T09:58:52Z</time>
      </trkpt>
      <trkpt lat="45.944269085302949" lon="9.420563215389848">
        <ele>1255.1400000000001</ele>
        <time>2012-11-25T09:59:06Z</time>
      </trkpt>
      <trkpt lat="45.944184930995107" lon="9.420532705262303">
        <ele>1257.54</ele>
        <time>2012-11-25T09:59:18Z</time>
      </trkpt>
      <trkpt lat="45.944104045629501" lon="9.420519042760134">
        <ele>1260.9100000000001</ele>
        <time>2012-11-25T09:59:37Z</time>
      </trkpt>
      <trkpt lat="45.944020645692945" lon="9.420471182093024">
        <ele>1263.3099999999999</ele>
        <time>2012-11-25T09:59:52Z</time>
      </trkpt>
      <trkpt lat="45.944022741168737" lon="9.420284768566489">
        <ele>1265.71</ele>
        <time>2012-11-25T10:00:09Z</time>
      </trkpt>
      <trkpt lat="45.943970354273915" lon="9.420215617865324">
        <ele>1268.5999999999999</ele>
        <time>2012-11-25T10:00:23Z</time>
      </trkpt>
      <trkpt lat="45.943949315696955" lon="9.42013037391007">
        <ele>1271</ele>
        <time>2012-11-25T10:00:38Z</time>
      </trkpt>
      <trkpt lat="45.943949734792113" lon="9.420114196836948">
        <ele>1271</ele>
        <time>2012-11-25T10:00:39Z</time>
      </trkpt>
      <trkpt lat="45.943924337625504" lon="9.419980589300394">
        <ele>1271.96</ele>
        <time>2012-11-25T10:00:50Z</time>
      </trkpt>
      <trkpt lat="45.943869687616825" lon="9.419848825782538">
        <ele>1272.9200000000001</ele>
        <time>2012-11-25T10:01:04Z</time>
      </trkpt>
      <trkpt lat="45.943835489451885" lon="9.41970088519156">
        <ele>1274.8499999999999</ele>
        <time>2012-11-25T10:01:18Z</time>
      </trkpt>
      <trkpt lat="45.943824592977762" lon="9.419685127213597">
        <ele>1275.3299999999999</ele>
        <time>2012-11-25T10:01:20Z</time>
      </trkpt>
      <trkpt lat="45.943781174719334" lon="9.419534923508763">
        <ele>1276.77</ele>
        <time>2012-11-25T10:01:34Z</time>
      </trkpt>
      <trkpt lat="45.943777821958065" lon="9.419524865224958">
        <ele>1276.77</ele>
        <time>2012-11-25T10:01:35Z</time>
      </trkpt>
      <trkpt lat="45.943746222183108" lon="9.419464180245996">
        <ele>1277.73</ele>
        <time>2012-11-25T10:01:41Z</time>
      </trkpt>
      <trkpt lat="45.943659134209156" lon="9.419428389519453">
        <ele>1280.1300000000001</ele>
        <time>2012-11-25T10:01:56Z</time>
      </trkpt>
      <trkpt lat="45.94355377368629" lon="9.419460408389568">
        <ele>1282.54</ele>
        <time>2012-11-25T10:02:12Z</time>
      </trkpt>
      <trkpt lat="45.943461153656244" lon="9.41947809420526">
        <ele>1284.46</ele>
        <time>2012-11-25T10:02:26Z</time>
      </trkpt>
      <trkpt lat="45.943386973813176" lon="9.419493433088064">
        <ele>1286.3800000000001</ele>
        <time>2012-11-25T10:02:39Z</time>
      </trkpt>
      <trkpt lat="45.943260574713349" lon="9.419470718130469">
        <ele>1288.3</ele>
        <time>2012-11-25T10:02:55Z</time>
      </trkpt>
      <trkpt lat="45.943155717104673" lon="9.419364351779223">
        <ele>1289.27</ele>
        <time>2012-11-25T10:03:11Z</time>
      </trkpt>
      <trkpt lat="45.943039795383811" lon="9.419339541345835">
        <ele>1290.71</ele>
        <time>2012-11-25T10:03:26Z</time>
      </trkpt>
      <trkpt lat="45.942936111241579" lon="9.41935982555151">
        <ele>1292.6300000000001</ele>
        <time>2012-11-25T10:03:42Z</time>
      </trkpt>
      <trkpt lat="45.942821782082319" lon="9.419344067573547">
        <ele>1295.03</ele>
        <time>2012-11-25T10:03:57Z</time>
      </trkpt>
      <trkpt lat="45.942728910595179" lon="9.419267540797591">
        <ele>1295.99</ele>
        <time>2012-11-25T10:04:11Z</time>
      </trkpt>
      <trkpt lat="45.942691275849938" lon="9.419243317097426">
        <ele>1296.48</ele>
        <time>2012-11-25T10:04:27Z</time>
      </trkpt>
      <trkpt lat="45.942630926147103" lon="9.419218422845006">
        <ele>1296.96</ele>
        <time>2012-11-25T10:04:41Z</time>
      </trkpt>
      <trkpt lat="45.942499078810215" lon="9.419178357347846">
        <ele>1299.3599999999999</ele>
        <time>2012-11-25T10:04:58Z</time>
      </trkpt>
      <trkpt lat="45.942352144047618" lon="9.419121695682406">
        <ele>1300.8</ele>
        <time>2012-11-25T10:05:16Z</time>
      </trkpt>
      <trkpt lat="45.942236809059978" lon="9.419085569679737">
        <ele>1302.24</ele>
        <time>2012-11-25T10:05:30Z</time>
      </trkpt>
      <trkpt lat="45.942187858745456" lon="9.419036200270057">
        <ele>1303.2</ele>
        <time>2012-11-25T10:05:36Z</time>
      </trkpt>
      <trkpt lat="45.942142512649298" lon="9.418996470049024">
        <ele>1304.1700000000001</ele>
        <time>2012-11-25T10:05:42Z</time>
      </trkpt>
      <trkpt lat="45.942033883184195" lon="9.418893288820982">
        <ele>1305.6099999999999</ele>
        <time>2012-11-25T10:05:55Z</time>
      </trkpt>
      <trkpt lat="45.941951740533113" lon="9.418796729296446">
        <ele>1307.05</ele>
        <time>2012-11-25T10:06:07Z</time>
      </trkpt>
      <trkpt lat="45.941936988383532" lon="9.418769236654043">
        <ele>1307.05</ele>
        <time>2012-11-25T10:06:10Z</time>
      </trkpt>
      <trkpt lat="45.941858785226941" lon="9.418587265536189">
        <ele>1308.01</ele>
        <time>2012-11-25T10:06:23Z</time>
      </trkpt>
      <trkpt lat="45.941735319793224" lon="9.418384758755565">
        <ele>1308.97</ele>
        <time>2012-11-25T10:06:39Z</time>
      </trkpt>
      <trkpt lat="45.94161101616919" lon="9.418216533958912">
        <ele>1308.97</ele>
        <time>2012-11-25T10:06:53Z</time>
      </trkpt>
      <trkpt lat="45.941546810790896" lon="9.418039591982961">
        <ele>1309.45</ele>
        <time>2012-11-25T10:07:07Z</time>
      </trkpt>
      <trkpt lat="45.941525604575872" lon="9.417965998873115">
        <ele>1309.45</ele>
        <time>2012-11-25T10:07:20Z</time>
      </trkpt>
      <trkpt lat="45.941554438322783" lon="9.417959209531546">
        <ele>1309.45</ele>
        <time>2012-11-25T10:07:37Z</time>
      </trkpt>
      <trkpt lat="45.941584529355168" lon="9.41791445016861">
        <ele>1309.9300000000001</ele>
        <time>2012-11-25T10:07:45Z</time>
      </trkpt>
      <trkpt lat="45.941591989248991" lon="9.417889723554254">
        <ele>1309.9300000000001</ele>
        <time>2012-11-25T10:07:47Z</time>
      </trkpt>
      <trkpt lat="45.941631300374866" lon="9.41769509576261">
        <ele>1310.9000000000001</ele>
        <time>2012-11-25T10:08:02Z</time>
      </trkpt>
      <trkpt lat="45.941662481054664" lon="9.417526200413704">
        <ele>1311.8599999999999</ele>
        <time>2012-11-25T10:08:14Z</time>
      </trkpt>
      <trkpt lat="45.941671868786216" lon="9.417436178773642">
        <ele>1312.3399999999999</ele>
        <time>2012-11-25T10:08:25Z</time>
      </trkpt>
      <trkpt lat="45.941663570702076" lon="9.417445650324225">
        <ele>1312.3399999999999</ele>
        <time>2012-11-25T10:08:44Z</time>
      </trkpt>
      <trkpt lat="45.941662816330791" lon="9.417397873476148">
        <ele>1312.3399999999999</ele>
        <time>2012-11-25T10:09:01Z</time>
      </trkpt>
      <trkpt lat="45.941664157435298" lon="9.417369039729238">
        <ele>1312.3399999999999</ele>
        <time>2012-11-25T10:09:04Z</time>
      </trkpt>
      <trkpt lat="45.941669940948486" lon="9.417314892634749">
        <ele>1312.8199999999999</ele>
        <time>2012-11-25T10:09:08Z</time>
      </trkpt>
      <trkpt lat="45.94169550575316" lon="9.417122695595026">
        <ele>1315.7</ele>
        <time>2012-11-25T10:09:24Z</time>
      </trkpt>
      <trkpt lat="45.941698607057333" lon="9.417080283164978">
        <ele>1316.1800000000001</ele>
        <time>2012-11-25T10:09:27Z</time>
      </trkpt>
      <trkpt lat="45.941694835200906" lon="9.417044073343277">
        <ele>1316.6600000000001</ele>
        <time>2012-11-25T10:09:30Z</time>
      </trkpt>
      <trkpt lat="45.941717801615596" lon="9.416960589587688">
        <ele>1317.6199999999999</ele>
        <time>2012-11-25T10:09:42Z</time>
      </trkpt>
      <trkpt lat="45.94170137308538" lon="9.416975928470492">
        <ele>1312.3399999999999</ele>
        <time>2015-04-06T07:49:30Z</time>
      </trkpt>
      <trkpt lat="45.941742192953825" lon="9.416972491890192">
        <ele>1312.8199999999999</ele>
        <time>2015-04-06T07:49:34Z</time>
      </trkpt>
      <trkpt lat="45.941847637295723" lon="9.417035188525915">
        <ele>1314.74</ele>
        <time>2015-04-06T07:49:47Z</time>
      </trkpt>
      <trkpt lat="45.941925924271345" lon="9.417074415832758">
        <ele>1318.5899999999999</ele>
        <time>2015-04-06T07:49:59Z</time>
      </trkpt>
      <trkpt lat="45.941958278417587" lon="9.417086485773325">
        <ele>1318.0999999999999</ele>
        <time>2015-04-06T07:50:10Z</time>
      </trkpt>
      <trkpt lat="45.941975545138121" lon="9.41709159873426">
        <ele>1319.0699999999999</ele>
        <time>2015-04-06T07:50:19Z</time>
      </trkpt>
      <trkpt lat="45.942074786871672" lon="9.417127892374992">
        <ele>1321.47</ele>
        <time>2015-04-06T07:50:31Z</time>
      </trkpt>
      <trkpt lat="45.94215827062726" lon="9.417132418602705">
        <ele>1322.4300000000001</ele>
        <time>2015-04-06T07:50:41Z</time>
      </trkpt>
      <trkpt lat="45.942263044416904" lon="9.417157229036093">
        <ele>1323.8699999999999</ele>
        <time>2015-04-06T07:50:53Z</time>
      </trkpt>
      <trkpt lat="45.942367734387517" lon="9.417183045297861">
        <ele>1325.3099999999999</ele>
        <time>2015-04-06T07:51:05Z</time>
      </trkpt>
      <trkpt lat="45.94245633110404" lon="9.417188912630081">
        <ele>1326.28</ele>
        <time>2015-04-06T07:51:15Z</time>
      </trkpt>
      <trkpt lat="45.942523218691349" lon="9.417227134108543">
        <ele>1327.24</ele>
        <time>2015-04-06T07:51:26Z</time>
      </trkpt>
      <trkpt lat="45.942523218691349" lon="9.417177680879831">
        <ele>1326.76</ele>
        <time>2015-04-06T07:51:31Z</time>
      </trkpt>
      <trkpt lat="45.942539144307375" lon="9.417156809940934">
        <ele>1326.28</ele>
        <time>2015-04-06T07:51:33Z</time>
      </trkpt>
      <trkpt lat="45.942675350233912" lon="9.417172987014055">
        <ele>1327.24</ele>
        <time>2015-04-06T07:51:46Z</time>
      </trkpt>
      <trkpt lat="45.942771406844258" lon="9.417180782184005">
        <ele>1328.2</ele>
        <time>2015-04-06T07:51:56Z</time>
      </trkpt>
      <trkpt lat="45.942858075723052" lon="9.417166281491518">
        <ele>1329.1600000000001</ele>
        <time>2015-04-06T07:52:06Z</time>
      </trkpt>
      <trkpt lat="45.94295765273273" lon="9.417175585404038">
        <ele>1330.5999999999999</ele>
        <time>2015-04-06T07:52:18Z</time>
      </trkpt>
      <trkpt lat="45.943068796768785" lon="9.417167035862804">
        <ele>1332.52</ele>
        <time>2015-04-06T07:52:30Z</time>
      </trkpt>
      <trkpt lat="45.943189663812518" lon="9.417122695595026">
        <ele>1333.97</ele>
        <time>2015-04-06T07:52:43Z</time>
      </trkpt>
      <trkpt lat="45.943293683230877" lon="9.417117247357965">
        <ele>1336.3699999999999</ele>
        <time>2015-04-06T07:52:55Z</time>
      </trkpt>
      <trkpt lat="45.943378256633878" lon="9.417109619826078">
        <ele>1337.8099999999999</ele>
        <time>2015-04-06T07:53:06Z</time>
      </trkpt>
      <trkpt lat="45.943462662398815" lon="9.417141973972321">
        <ele>1340.22</ele>
        <time>2015-04-06T07:53:20Z</time>
      </trkpt>
      <trkpt lat="45.94351421110332" lon="9.417158151045442">
        <ele>1342.1400000000001</ele>
        <time>2015-04-06T07:53:31Z</time>
      </trkpt>
      <trkpt lat="45.943602807819843" lon="9.417096376419067">
        <ele>1344.54</ele>
        <time>2015-04-06T07:53:41Z</time>
      </trkpt>
      <trkpt lat="45.943702133372426" lon="9.417049689218402">
        <ele>1346.9400000000001</ele>
        <time>2015-04-06T07:53:56Z</time>
      </trkpt>
      <trkpt lat="45.943803805857897" lon="9.417009958997369">
        <ele>1349.8299999999999</ele>
        <time>2015-04-06T07:54:12Z</time>
      </trkpt>
      <trkpt lat="45.943899694830179" lon="9.416964193806052">
        <ele>1352.23</ele>
        <time>2015-04-06T07:54:26Z</time>
      </trkpt>
      <trkpt lat="45.943985274061561" lon="9.416935862973332">
        <ele>1355.1199999999999</ele>
        <time>2015-04-06T07:54:40Z</time>
      </trkpt>
      <trkpt lat="45.944087617099285" lon="9.416848607361317">
        <ele>1357.52</ele>
        <time>2015-04-06T07:54:55Z</time>
      </trkpt>
      <trkpt lat="45.944093652069569" lon="9.41683997400105">
        <ele>1358</ele>
        <time>2015-04-06T07:54:56Z</time>
      </trkpt>
      <trkpt lat="45.944108823314309" lon="9.416807033121586">
        <ele>1358</ele>
        <time>2015-04-06T07:55:00Z</time>
      </trkpt>
      <trkpt lat="45.944205969572067" lon="9.416757496073842">
        <ele>1358</ele>
        <time>2015-04-06T07:55:11Z</time>
      </trkpt>
      <trkpt lat="45.944328345358372" lon="9.416697649285197">
        <ele>1359.9200000000001</ele>
        <time>2015-04-06T07:55:24Z</time>
      </trkpt>
      <trkpt lat="45.944374948740005" lon="9.416696643456817">
        <ele>1361.8399999999999</ele>
        <time>2015-04-06T07:55:32Z</time>
      </trkpt>
      <trkpt lat="45.944417025893927" lon="9.416664624586701">
        <ele>1362.3299999999999</ele>
        <time>2015-04-06T07:55:37Z</time>
      </trkpt>
      <trkpt lat="45.944437477737665" lon="9.416649118065834">
        <ele>1362.8099999999999</ele>
        <time>2015-04-06T07:55:39Z</time>
      </trkpt>
      <trkpt lat="45.944526409730315" lon="9.416606370359659">
        <ele>1364.25</ele>
        <time>2015-04-06T07:55:50Z</time>
      </trkpt>
      <trkpt lat="45.944573851302266" lon="9.416603771969676">
        <ele>1364.73</ele>
        <time>2015-04-06T07:55:55Z</time>
      </trkpt>
      <trkpt lat="45.944708464667201" lon="9.416503943502903">
        <ele>1364.73</ele>
        <time>2015-04-06T07:56:08Z</time>
      </trkpt>
      <trkpt lat="45.944810723885894" lon="9.416427752003074">
        <ele>1364.73</ele>
        <time>2015-04-06T07:56:19Z</time>
      </trkpt>
      <trkpt lat="45.944915916770697" lon="9.41635818220675">
        <ele>1365.6900000000001</ele>
        <time>2015-04-06T07:56:29Z</time>
      </trkpt>
      <trkpt lat="45.945022199302912" lon="9.416271513327956">
        <ele>1366.1700000000001</ele>
        <time>2015-04-06T07:56:40Z</time>
      </trkpt>
      <trkpt lat="45.945040890946984" lon="9.416255252435803">
        <ele>1366.6500000000001</ele>
        <time>2015-04-06T07:56:42Z</time>
      </trkpt>
      <trkpt lat="45.94510518014431" lon="9.416205631569028">
        <ele>1366.6500000000001</ele>
        <time>2015-04-06T07:56:48Z</time>
      </trkpt>
      <trkpt lat="45.945182209834456" lon="9.416130529716611">
        <ele>1367.6099999999999</ele>
        <time>2015-04-06T07:56:58Z</time>
      </trkpt>
      <trkpt lat="45.945209031924605" lon="9.416109239682555">
        <ele>1368.0899999999999</ele>
        <time>2015-04-06T07:57:02Z</time>
      </trkpt>
      <trkpt lat="45.945230405777693" lon="9.416087362915278">
        <ele>1368.5699999999999</ele>
        <time>2015-04-06T07:57:05Z</time>
      </trkpt>
      <trkpt lat="45.945316068828106" lon="9.416017709299922">
        <ele>1370.02</ele>
        <time>2015-04-06T07:57:16Z</time>
      </trkpt>
      <trkpt lat="45.945335179567337" lon="9.416043609380722">
        <ele>1370.5</ele>
        <time>2015-04-06T07:57:24Z</time>
      </trkpt>
      <trkpt lat="45.945346830412745" lon="9.416039921343327">
        <ele>1370.5</ele>
        <time>2015-04-06T07:57:34Z</time>
      </trkpt>
      <trkpt lat="45.945346243679523" lon="9.416038831695914">
        <ele>1370.5</ele>
        <time>2015-04-06T07:57:36Z</time>
      </trkpt>
      <trkpt lat="45.945346830412745" lon="9.416036820039153">
        <ele>1370.02</ele>
        <time>2015-04-06T07:57:45Z</time>
      </trkpt>
      <trkpt lat="45.945338532328606" lon="9.416026761755347">
        <ele>1370.02</ele>
        <time>2015-04-06T07:58:01Z</time>
      </trkpt>
      <trkpt lat="45.945342723280191" lon="9.415985774248838">
        <ele>1370.5</ele>
        <time>2015-04-06T07:58:18Z</time>
      </trkpt>
      <trkpt lat="45.94533140771091" lon="9.41600781865418">
        <ele>1370.98</ele>
        <time>2015-04-06T07:58:24Z</time>
      </trkpt>
      <trkpt lat="45.945314979180694" lon="9.416000107303262">
        <ele>1370.98</ele>
        <time>2015-04-06T07:58:38Z</time>
      </trkpt>
      <trkpt lat="45.945339957252145" lon="9.415961047634482">
        <ele>1370.98</ele>
        <time>2015-04-06T07:58:55Z</time>
      </trkpt>
      <trkpt lat="45.945391757413745" lon="9.415929280221462">
        <ele>1372.4200000000001</ele>
        <time>2015-04-06T07:59:03Z</time>
      </trkpt>
      <trkpt lat="45.945419669151306" lon="9.415948977693915">
        <ele>1373.3800000000001</ele>
        <time>2015-04-06T07:59:14Z</time>
      </trkpt>
      <trkpt lat="45.945494435727596" lon="9.415894076228142">
        <ele>1374.8199999999999</ele>
        <time>2015-04-06T07:59:25Z</time>
      </trkpt>
      <trkpt lat="45.945537770166993" lon="9.415898183360696">
        <ele>1376.26</ele>
        <time>2015-04-06T07:59:35Z</time>
      </trkpt>
      <trkpt lat="45.945560820400715" lon="9.415849149227142">
        <ele>1377.23</ele>
        <time>2015-04-06T07:59:47Z</time>
      </trkpt>
      <trkpt lat="45.945625528693199" lon="9.415808748453856">
        <ele>1379.1500000000001</ele>
        <time>2015-04-06T07:59:58Z</time>
      </trkpt>
      <trkpt lat="45.945686968043447" lon="9.415728030726314">
        <ele>1381.0699999999999</ele>
        <time>2015-04-06T08:00:10Z</time>
      </trkpt>
      <trkpt lat="45.945764081552625" lon="9.415641278028488">
        <ele>1383.96</ele>
        <time>2015-04-06T08:00:24Z</time>
      </trkpt>
      <trkpt lat="45.945818144828081" lon="9.415562907233834">
        <ele>1386.8399999999999</ele>
        <time>2015-04-06T08:00:38Z</time>
      </trkpt>
      <trkpt lat="45.945855947211385" lon="9.415494510903955">
        <ele>1388.76</ele>
        <time>2015-04-06T08:00:49Z</time>
      </trkpt>
      <trkpt lat="45.945867262780666" lon="9.415423097088933">
        <ele>1390.2</ele>
        <time>2015-04-06T08:01:00Z</time>
      </trkpt>
      <trkpt lat="45.945871621370316" lon="9.415411530062556">
        <ele>1390.6800000000001</ele>
        <time>2015-04-06T08:01:18Z</time>
      </trkpt>
      <trkpt lat="45.945887127891183" lon="9.415453271940351">
        <ele>1390.6800000000001</ele>
        <time>2015-04-06T08:01:30Z</time>
      </trkpt>
      <trkpt lat="45.945898862555623" lon="9.415415888652206">
        <ele>1391.1700000000001</ele>
        <time>2015-04-06T08:01:38Z</time>
      </trkpt>
      <trkpt lat="45.945905819535255" lon="9.415438435971737">
        <ele>1391.6500000000001</ele>
        <time>2015-04-06T08:02:00Z</time>
      </trkpt>
      <trkpt lat="45.945921242237091" lon="9.415424941107631">
        <ele>1392.1300000000001</ele>
        <time>2015-04-06T08:02:11Z</time>
      </trkpt>
      <trkpt lat="45.945961307734251" lon="9.415352772921324">
        <ele>1394.53</ele>
        <time>2015-04-06T08:02:21Z</time>
      </trkpt>
      <trkpt lat="45.946035236120224" lon="9.415290076285601">
        <ele>1396.9300000000001</ele>
        <time>2015-04-06T08:02:34Z</time>
      </trkpt>
      <trkpt lat="45.946092568337917" lon="9.415228050202131">
        <ele>1399.3399999999999</ele>
        <time>2015-04-06T08:02:45Z</time>
      </trkpt>
      <trkpt lat="45.946133052930236" lon="9.41516837105155">
        <ele>1401.74</ele>
        <time>2015-04-06T08:02:55Z</time>
      </trkpt>
      <trkpt lat="45.946175716817379" lon="9.415097627788782">
        <ele>1403.6600000000001</ele>
        <time>2015-04-06T08:03:06Z</time>
      </trkpt>
      <trkpt lat="45.946214022114873" lon="9.415052616968751">
        <ele>1406.0699999999999</ele>
        <time>2015-04-06T08:03:17Z</time>
      </trkpt>
      <trkpt lat="45.946272695437074" lon="9.414986986666918">
        <ele>1407.99</ele>
        <time>2015-04-06T08:03:28Z</time>
      </trkpt>
      <trkpt lat="45.946282502263784" lon="9.414906352758408">
        <ele>1410.3900000000001</ele>
        <time>2015-04-06T08:03:38Z</time>
      </trkpt>
      <trkpt lat="45.946299098432064" lon="9.414824042469263">
        <ele>1411.8299999999999</ele>
        <time>2015-04-06T08:03:48Z</time>
      </trkpt>
      <trkpt lat="45.946321729570627" lon="9.41473888233304">
        <ele>1414.24</ele>
        <time>2015-04-06T08:03:59Z</time>
      </trkpt>
      <trkpt lat="45.946366908028722" lon="9.414636204019189">
        <ele>1416.1600000000001</ele>
        <time>2015-04-06T08:04:12Z</time>
      </trkpt>
      <trkpt lat="45.946417786180973" lon="9.414591612294316">
        <ele>1418.5599999999999</ele>
        <time>2015-04-06T08:04:24Z</time>
      </trkpt>
      <trkpt lat="45.946449302136898" lon="9.414507206529379">
        <ele>1420.97</ele>
        <time>2015-04-06T08:04:36Z</time>
      </trkpt>
      <trkpt lat="45.946513256058097" lon="9.414536375552416">
        <ele>1423.3699999999999</ele>
        <time>2015-04-06T08:04:46Z</time>
      </trkpt>
      <trkpt lat="45.946543347090483" lon="9.414479210972786">
        <ele>1425.29</ele>
        <time>2015-04-06T08:04:57Z</time>
      </trkpt>
      <trkpt lat="45.946560949087143" lon="9.414381813257933">
        <ele>1427.7</ele>
        <time>2015-04-06T08:05:08Z</time>
      </trkpt>
      <trkpt lat="45.946608474478126" lon="9.414319200441241">
        <ele>1429.6199999999999</ele>
        <time>2015-04-06T08:05:17Z</time>
      </trkpt>
      <trkpt lat="45.94666488468647" lon="9.414269495755434">
        <ele>1432.02</ele>
        <time>2015-04-06T08:05:28Z</time>
      </trkpt>
      <trkpt lat="45.946685923263431" lon="9.414223730564117">
        <ele>1432.98</ele>
        <time>2015-04-06T08:05:34Z</time>
      </trkpt>
      <trkpt lat="45.946750715374947" lon="9.414161955937743">
        <ele>1434.9100000000001</ele>
        <time>2015-04-06T08:05:46Z</time>
      </trkpt>
      <trkpt lat="45.946830846369267" lon="9.414136977866292">
        <ele>1436.3499999999999</ele>
        <time>2015-04-06T08:05:58Z</time>
      </trkpt>
      <trkpt lat="45.946891698986292" lon="9.414072604849935">
        <ele>1438.27</ele>
        <time>2015-04-06T08:06:08Z</time>
      </trkpt>
      <trkpt lat="45.946916425600648" lon="9.414017451927066">
        <ele>1439.23</ele>
        <time>2015-04-06T08:06:19Z</time>
      </trkpt>
      <trkpt lat="45.946903517469764" lon="9.414025498554111">
        <ele>1438.75</ele>
        <time>2015-04-06T08:06:38Z</time>
      </trkpt>
      <trkpt lat="45.9469258133322" lon="9.414007477462292">
        <ele>1439.71</ele>
        <time>2015-04-06T08:06:48Z</time>
      </trkpt>
      <trkpt lat="45.946943163871765" lon="9.413983421400189">
        <ele>1439.71</ele>
        <time>2015-04-06T08:07:01Z</time>
      </trkpt>
      <trkpt lat="45.946951378136873" lon="9.413965400308371">
        <ele>1440.1900000000001</ele>
        <time>2015-04-06T08:07:09Z</time>
      </trkpt>
      <trkpt lat="45.946969734504819" lon="9.41394385881722">
        <ele>1441.1500000000001</ele>
        <time>2015-04-06T08:07:18Z</time>
      </trkpt>
      <trkpt lat="45.946984402835369" lon="9.413937656208873">
        <ele>1441.6300000000001</ele>
        <time>2015-04-06T08:07:35Z</time>
      </trkpt>
      <trkpt lat="45.947046931833029" lon="9.413851825520396">
        <ele>1443.5599999999999</ele>
        <time>2015-04-06T08:07:45Z</time>
      </trkpt>
      <trkpt lat="45.947083309292793" lon="9.413765659555793">
        <ele>1445</ele>
        <time>2015-04-06T08:07:54Z</time>
      </trkpt>
      <trkpt lat="45.947065791115165" lon="9.413718804717064">
        <ele>1446.9200000000001</ele>
        <time>2015-04-06T08:08:03Z</time>
      </trkpt>
    </trkseg>
  </trk>

</gpx>